Home > Products > Valid Products > TAF

000
FTUS41 KCTP 181219 AAA
TAFBFD
TAF AMD
KBFD 181219Z 1812/1912 28009G18KT 4SM -SN BR SCT009 OVC014
      TEMPO 1812/1814 OVC009=



000
FTUS41 KCTP 181219 AAA
TAFBFD
TAF AMD
KBFD 181219Z 1812/1912 28009G18KT 4SM -SN BR SCT009 OVC014
      TEMPO 1812/1814 OVC009=



000
FTUS41 KCTP 181139
TAFIPT
TAF
KIPT 181139Z 1812/1912 28009G18KT P6SM BKN040=



000
FTUS41 KCTP 181139
TAFUNV
TAF
KUNV 181139Z 1812/1912 28012G20KT P6SM BKN030
     FM181500 28012G20KT P6SM BKN035=



000
FTUS41 KCTP 181139
TAFMDT
TAF
KMDT 181139Z 1812/1912 31012G22KT P6SM BKN045
     FM182200 30009KT P6SM FEW250=



000
FTUS41 KCTP 181139
TAFJST
TAF
KJST 181139Z 1812/1912 28011G21KT P6SM -SN BKN015 OVC025=



000
FTUS41 KCTP 181139
TAFIPT
TAF
KIPT 181139Z 1812/1912 28009G18KT P6SM BKN040=



000
FTUS41 KCTP 181139
TAFMDT
TAF
KMDT 181139Z 1812/1912 31012G22KT P6SM BKN045
     FM182200 30009KT P6SM FEW250=



000
FTUS41 KCTP 181139
TAFAOO
TAF
KAOO 181139Z 1812/1912 29012G22KT P6SM BKN030
     FM181500 29012G22KT P6SM BKN035=



000
FTUS41 KCTP 181139
TAFBFD
TAF
KBFD 181139Z 1812/1912 28009G18KT 4SM -SN BR SCT009 OVC014=



000
FTUS41 KCTP 181139
TAFAOO
TAF
KAOO 181139Z 1812/1912 29012G22KT P6SM BKN030
     FM181500 29012G22KT P6SM BKN035=



000
FTUS41 KCTP 181139
TAFBFD
TAF
KBFD 181139Z 1812/1912 28009G18KT 4SM -SN BR SCT009 OVC014=



000
FTUS41 KCTP 181139
TAFJST
TAF
KJST 181139Z 1812/1912 28011G21KT P6SM -SN BKN015 OVC025=



000
FTUS41 KCTP 181139
TAFUNV
TAF
KUNV 181139Z 1812/1912 28012G20KT P6SM BKN030
     FM181500 28012G20KT P6SM BKN035=



000
FTUS41 KCTP 180917 AAA
TAFIPT
TAF AMD
KIPT 180917Z 1809/1906 28009G18KT P6SM BKN040=



000
FTUS41 KCTP 180917 AAA
TAFIPT
TAF AMD
KIPT 180917Z 1809/1906 28009G18KT P6SM BKN040=



000
FTUS41 KCTP 180917 AAA
TAFUNV
TAF AMD
KUNV 180917Z 1809/1906 28012G20KT P6SM BKN035=



000
FTUS41 KCTP 180917 AAA
TAFUNV
TAF AMD
KUNV 180917Z 1809/1906 28012G20KT P6SM BKN035=



000
FTUS41 KCTP 180917 AAA
TAFMDT
TAF AMD
KMDT 180917Z 1809/1906 31014G23KT P6SM BKN045
     FM182100 30011KT P6SM FEW250=



000
FTUS41 KCTP 180917 AAA
TAFMDT
TAF AMD
KMDT 180917Z 1809/1906 31014G23KT P6SM BKN045
     FM182100 30011KT P6SM FEW250=



000
FTUS41 KCTP 180917 AAA
TAFIPT
TAF AMD
KIPT 180917Z 1809/1906 28009G18KT P6SM BKN040=



000
FTUS41 KCTP 180917 AAA
TAFUNV
TAF AMD
KUNV 180917Z 1809/1906 28012G20KT P6SM BKN035=



000
FTUS41 KCTP 180917 AAA
TAFMDT
TAF AMD
KMDT 180917Z 1809/1906 31014G23KT P6SM BKN045
     FM182100 30011KT P6SM FEW250=



000
FTUS41 KCTP 180917 AAA
TAFUNV
TAF AMD
KUNV 180917Z 1809/1906 28012G20KT P6SM BKN035=



000
FTUS41 KCTP 180917 AAA
TAFMDT
TAF AMD
KMDT 180917Z 1809/1906 31014G23KT P6SM BKN045
     FM182100 30011KT P6SM FEW250=



000
FTUS41 KCTP 180916 AAA
TAFJST
TAF AMD
KJST 180916Z 1809/1906 28013G23KT 5SM -SN BKN015 OVC025=



000
FTUS41 KCTP 180916 AAA
TAFJST
TAF AMD
KJST 180916Z 1809/1906 28013G23KT 5SM -SN BKN015 OVC025=



000
FTUS41 KCTP 180916 AAA
TAFJST
TAF AMD
KJST 180916Z 1809/1906 28013G23KT 5SM -SN BKN015 OVC025=



000
FTUS41 KCTP 180916 AAA
TAFAOO
TAF AMD
KAOO 180916Z 1809/1906 29012G22KT P6SM BKN035=



000
FTUS41 KCTP 180916 AAA
TAFAOO
TAF AMD
KAOO 180916Z 1809/1906 29012G22KT P6SM BKN035=



000
FTUS41 KCTP 180916 AAA
TAFAOO
TAF AMD
KAOO 180916Z 1809/1906 29012G22KT P6SM BKN035=



000
FTUS41 KCTP 180916 AAA
TAFAOO
TAF AMD
KAOO 180916Z 1809/1906 29012G22KT P6SM BKN035=



000
FTUS41 KCTP 180914 AAA
TAFBFD
TAF AMD
KBFD 180914Z 1809/1906 28009G18KT 4SM -SN BR SCT009 OVC014=



000
FTUS41 KCTP 180914 AAA
TAFBFD
TAF AMD
KBFD 180914Z 1809/1906 28009G18KT 4SM -SN BR SCT009 OVC014=



000
FTUS41 KCTP 180914 AAA
TAFBFD
TAF AMD
KBFD 180914Z 1809/1906 28009G18KT 4SM -SN BR SCT009 OVC014=



000
FTUS41 KCTP 180914 AAA
TAFBFD
TAF AMD
KBFD 180914Z 1809/1906 28009G18KT 4SM -SN BR SCT009 OVC014=



000
FTUS41 KCTP 180540
TAFJST
TAF
KJST 180540Z 1806/1906 28013G23KT 5SM -SN BKN015 OVC025=



000
FTUS41 KCTP 180540
TAFAOO
TAF
KAOO 180540Z 1806/1906 29012G22KT P6SM BKN035=



000
FTUS41 KCTP 180540
TAFMDT
TAF
KMDT 180540Z 1806/1906 31014G23KT P6SM BKN045
     FM182100 30011KT P6SM FEW250=



000
FTUS41 KCTP 180540
TAFBFD
TAF
KBFD 180540Z 1806/1906 28008KT 3SM -SN BR SCT009 OVC014=



000
FTUS41 KCTP 180540
TAFMDT
TAF
KMDT 180540Z 1806/1906 31014G23KT P6SM BKN045
     FM182100 30011KT P6SM FEW250=



000
FTUS41 KCTP 180540
TAFBFD
TAF
KBFD 180540Z 1806/1906 28008KT 3SM -SN BR SCT009 OVC014=



000
FTUS41 KCTP 180540
TAFJST
TAF
KJST 180540Z 1806/1906 28013G23KT 5SM -SN BKN015 OVC025=



000
FTUS41 KCTP 180540
TAFIPT
TAF
KIPT 180540Z 1806/1906 28009G18KT P6SM BKN040=



000
FTUS41 KCTP 180540
TAFIPT
TAF
KIPT 180540Z 1806/1906 28009G18KT P6SM BKN040=



000
FTUS41 KCTP 180540
TAFUNV
TAF
KUNV 180540Z 1806/1906 28012G20KT P6SM BKN035=



000
FTUS41 KCTP 180540
TAFUNV
TAF
KUNV 180540Z 1806/1906 28012G20KT P6SM BKN035=



000
FTUS41 KCTP 180540
TAFAOO
TAF
KAOO 180540Z 1806/1906 29012G22KT P6SM BKN035=



000
FTUS41 KCTP 180336 AAA
TAFBFD
TAF AMD
KBFD 180336Z 1804/1824 28007KT 1SM -SN BR BKN009 OVC014
     FM181200 29011G20KT 5SM -SHSN OVC012
     FM181800 29010G20KT 6SM BR VCSH OVC025=



000
FTUS41 KCTP 180336 AAA
TAFIPT
TAF AMD
KIPT 180336Z 1804/1824 29006KT P6SM BKN035 BKN070
     FM180800 30015G25KT P6SM BKN030
     FM181700 27011KT P6SM OVC050=



000
FTUS41 KCTP 180336 AAA
TAFUNV
TAF AMD
KUNV 180336Z 1804/1824 27014G17KT P6SM VCSH OVC027
      TEMPO 1804/1806 1 1/2SM -SHSN OVC022
     FM180700 30015G26KT P6SM OVC030=



000
FTUS41 KCTP 180336 AAA
TAFJST
TAF AMD
KJST 180336Z 1804/1824 28022G29KT P6SM OVC021
     FM181000 28015G22KT P6SM VCSH OVC015
     FM181500 28013KT P6SM OVC025
     FM181800 28011KT P6SM BKN050=



000
FTUS41 KCTP 180336 AAA
TAFBFD
TAF AMD
KBFD 180336Z 1804/1824 28007KT 1SM -SN BR BKN009 OVC014
     FM181200 29011G20KT 5SM -SHSN OVC012
     FM181800 29010G20KT 6SM BR VCSH OVC025=



000
FTUS41 KCTP 180336 AAA
TAFJST
TAF AMD
KJST 180336Z 1804/1824 28022G29KT P6SM OVC021
     FM181000 28015G22KT P6SM VCSH OVC015
     FM181500 28013KT P6SM OVC025
     FM181800 28011KT P6SM BKN050=



000
FTUS41 KCTP 180336 AAA
TAFMDT
TAF AMD
KMDT 180336Z 1804/1824 32012KT P6SM OVC045
     FM180900 30015G26KT P6SM BKN030
     FM181600 30016G23KT P6SM BKN100
     FM182100 30011KT P6SM FEW250=



000
FTUS41 KCTP 180336 AAA
TAFUNV
TAF AMD
KUNV 180336Z 1804/1824 27014G17KT P6SM VCSH OVC027
      TEMPO 1804/1806 1 1/2SM -SHSN OVC022
     FM180700 30015G26KT P6SM OVC030=



000
FTUS41 KCTP 180336 AAA
TAFAOO
TAF AMD
KAOO 180336Z 1804/1824 29013G24KT P6SM -SN OVC026
     FM180700 30016G26KT P6SM OVC023
     FM181200 29011KT P6SM OVC050=



000
FTUS41 KCTP 180336 AAA
TAFAOO
TAF AMD
KAOO 180336Z 1804/1824 29013G24KT P6SM -SN OVC026
     FM180700 30016G26KT P6SM OVC023
     FM181200 29011KT P6SM OVC050=



000
FTUS41 KCTP 180336 AAA
TAFMDT
TAF AMD
KMDT 180336Z 1804/1824 32012KT P6SM OVC045
     FM180900 30015G26KT P6SM BKN030
     FM181600 30016G23KT P6SM BKN100
     FM182100 30011KT P6SM FEW250=



000
FTUS41 KCTP 180336 AAA
TAFIPT
TAF AMD
KIPT 180336Z 1804/1824 29006KT P6SM BKN035 BKN070
     FM180800 30015G25KT P6SM BKN030
     FM181700 27011KT P6SM OVC050=



000
FTUS41 KCTP 172344
TAFBFD
TAF
KBFD 172344Z 1800/1824 28010G17KT P6SM VCSH OVC008
     FM180200 29015G25KT 2SM -SHSN BR OVC012
     FM181200 29011G20KT 5SM -SHSN OVC012=



000
FTUS41 KCTP 172344
TAFAOO
TAF
KAOO 172344Z 1800/1824 28016G21KT P6SM OVC024
      TEMPO 1802/1806 1 1/2SM -SHSN OVC017
     FM180700 30016G26KT P6SM OVC023=



000
FTUS41 KCTP 172344
TAFJST
TAF
KJST 172344Z 1800/1824 27010KT P6SM OVC014
     FM180400 30018G28KT 4SM -SHSN BR OVC008
     FM181000 28015G22KT P6SM OVC015=



000
FTUS41 KCTP 172344
TAFBFD
TAF
KBFD 172344Z 1800/1824 28010G17KT P6SM VCSH OVC008
     FM180200 29015G25KT 2SM -SHSN BR OVC012
     FM181200 29011G20KT 5SM -SHSN OVC012=



000
FTUS41 KCTP 172344
TAFAOO
TAF
KAOO 172344Z 1800/1824 28016G21KT P6SM OVC024
      TEMPO 1802/1806 1 1/2SM -SHSN OVC017
     FM180700 30016G26KT P6SM OVC023=



000
FTUS41 KCTP 172344
TAFJST
TAF
KJST 172344Z 1800/1824 27010KT P6SM OVC014
     FM180400 30018G28KT 4SM -SHSN BR OVC008
     FM181000 28015G22KT P6SM OVC015=



000
FTUS41 KCTP 172344
TAFIPT
TAF
KIPT 172344Z 1800/1824 27011KT P6SM OVC050
      TEMPO 1802/1806 1 1/2SM -SHSN OVC022
     FM180800 30015G25KT P6SM BKN030
     FM181700 27011KT P6SM OVC050=



000
FTUS41 KCTP 172344
TAFUNV
TAF
KUNV 172344Z 1800/1824 29020KT P6SM VCSH OVC030
      TEMPO 1802/1806 1 1/2SM -SHSN OVC022
     FM180700 30015G26KT P6SM OVC030=



000
FTUS41 KCTP 172344
TAFUNV
TAF
KUNV 172344Z 1800/1824 29020KT P6SM VCSH OVC030
      TEMPO 1802/1806 1 1/2SM -SHSN OVC022
     FM180700 30015G26KT P6SM OVC030=



000
FTUS41 KCTP 172344
TAFMDT
TAF
KMDT 172344Z 1800/1824 29008KT P6SM OVC040
     FM180900 30015G26KT P6SM BKN030
     FM181600 30016G23KT P6SM BKN100
     FM182100 30011KT P6SM FEW250=



000
FTUS41 KCTP 172344
TAFMDT
TAF
KMDT 172344Z 1800/1824 29008KT P6SM OVC040
     FM180900 30015G26KT P6SM BKN030
     FM181600 30016G23KT P6SM BKN100
     FM182100 30011KT P6SM FEW250=



000
FTUS41 KCTP 172344
TAFIPT
TAF
KIPT 172344Z 1800/1824 27011KT P6SM OVC050
      TEMPO 1802/1806 1 1/2SM -SHSN OVC022
     FM180800 30015G25KT P6SM BKN030
     FM181700 27011KT P6SM OVC050=



000
FTUS41 KCTP 171936 AAA
TAFAOO
TAF AMD
KAOO 171936Z 1720/1818 28012G22KT P6SM BKN025 OVC035
      TEMPO 1802/1806 1 1/2SM -SHSN OVC017
     FM180700 30016G26KT P6SM OVC023=



000
FTUS41 KCTP 171936 AAA
TAFAOO
TAF AMD
KAOO 171936Z 1720/1818 28012G22KT P6SM BKN025 OVC035
      TEMPO 1802/1806 1 1/2SM -SHSN OVC017
     FM180700 30016G26KT P6SM OVC023=



000
FTUS41 KCTP 171935 AAB
TAFJST
TAF AMD
KJST 171935Z 1720/1818 28016G32KT P6SM -SHSN BKN019 OVC025
      TEMPO 1720/1723 3SM -SHSN
     FM180400 30018G28KT 4SM -SHSN BR OVC008=



000
FTUS41 KCTP 171935 AAB
TAFJST
TAF AMD
KJST 171935Z 1720/1818 28016G32KT P6SM -SHSN BKN019 OVC025
      TEMPO 1720/1723 3SM -SHSN
     FM180400 30018G28KT 4SM -SHSN BR OVC008=



000
FTUS41 KCTP 171840 AAA
TAFJST
TAF AMD
KJST 171840Z 1719/1818 28016G32KT P6SM -SHSN BKN021 OVC035
      TEMPO 1719/1723 2SM -SHSN
     FM180400 30018G28KT 4SM -SHSN BR OVC008=



000
FTUS41 KCTP 171840 AAA
TAFJST
TAF AMD
KJST 171840Z 1719/1818 28016G32KT P6SM -SHSN BKN021 OVC035
      TEMPO 1719/1723 2SM -SHSN
     FM180400 30018G28KT 4SM -SHSN BR OVC008=



000
FTUS41 KCTP 171838 AAA
TAFBFD
TAF AMD
KBFD 171838Z 1719/1818 26012G18KT P6SM VCSH BKN014 OVC030
      TEMPO 1719/1723 28016G25KT 1 1/2SM -SHSN OVC012
     FM180200 29015G25KT 2SM -SHSN BR OVC012
     FM181200 29011G20KT 5SM -SHSN OVC012=



000
FTUS41 KCTP 171838 AAA
TAFBFD
TAF AMD
KBFD 171838Z 1719/1818 26012G18KT P6SM VCSH BKN014 OVC030
      TEMPO 1719/1723 28016G25KT 1 1/2SM -SHSN OVC012
     FM180200 29015G25KT 2SM -SHSN BR OVC012
     FM181200 29011G20KT 5SM -SHSN OVC012=



000
FTUS41 KCTP 171740
TAFAOO
TAF
KAOO 171740Z 1718/1818 28016G25KT P6SM OVC021
      TEMPO 1802/1806 1 1/2SM -SHSN OVC015
     FM180700 30016G26KT P6SM OVC023=



000
FTUS41 KCTP 171740
TAFJST
TAF
KJST 171740Z 1718/1818 28016G30KT 4SM -SHSN BKN006 OVC012
      TEMPO 1718/1722 2SM -SHSN
     FM180400 30018G28KT 4SM -SHSN BR OVC008=



000
FTUS41 KCTP 171740
TAFBFD
TAF
KBFD 171740Z 1718/1818 28012G18KT P6SM VCSH BKN014 OVC030
      TEMPO 1720/1724 28016G25KT 1 1/2SM -SHSN OVC012
     FM180200 29015G25KT 2SM -SHSN BR OVC012
     FM181200 29011G20KT 5SM -SHSN OVC012=



000
FTUS41 KCTP 171740
TAFUNV
TAF
KUNV 171740Z 1718/1818 28016G26KT P6SM VCSH BKN020 OVC035
      TEMPO 1802/1806 1 1/2SM -SHSN OVC022
     FM180700 30015G26KT P6SM OVC030=



000
FTUS41 KCTP 171740
TAFMDT
TAF
KMDT 171740Z 1718/1818 29015G25KT P6SM BKN040 PROB30 1803/1807 1
      1/2SM -SHSN OVC022
     FM180900 30015G26KT P6SM BKN030=



000
FTUS41 KCTP 171740
TAFIPT
TAF
KIPT 171740Z 1718/1818 27012G19KT P6SM VCSH BKN030 OVC045
     FM172000 28015G25KT P6SM BKN035 OVC040
      TEMPO 1802/1806 1 1/2SM -SHSN OVC022
     FM180800 30015G25KT P6SM BKN030=



000
FTUS41 KCTP 171740
TAFJST
TAF
KJST 171740Z 1718/1818 28016G30KT 4SM -SHSN BKN006 OVC012
      TEMPO 1718/1722 2SM -SHSN
     FM180400 30018G28KT 4SM -SHSN BR OVC008=



000
FTUS41 KCTP 171740
TAFMDT
TAF
KMDT 171740Z 1718/1818 29015G25KT P6SM BKN040 PROB30 1803/1807 1
      1/2SM -SHSN OVC022
     FM180900 30015G26KT P6SM BKN030=



000
FTUS41 KCTP 171740
TAFIPT
TAF
KIPT 171740Z 1718/1818 27012G19KT P6SM VCSH BKN030 OVC045
     FM172000 28015G25KT P6SM BKN035 OVC040
      TEMPO 1802/1806 1 1/2SM -SHSN OVC022
     FM180800 30015G25KT P6SM BKN030=



000
FTUS41 KCTP 171740
TAFUNV
TAF
KUNV 171740Z 1718/1818 28016G26KT P6SM VCSH BKN020 OVC035
      TEMPO 1802/1806 1 1/2SM -SHSN OVC022
     FM180700 30015G26KT P6SM OVC030=



000
FTUS41 KCTP 171740
TAFAOO
TAF
KAOO 171740Z 1718/1818 28016G25KT P6SM OVC021
      TEMPO 1802/1806 1 1/2SM -SHSN OVC015
     FM180700 30016G26KT P6SM OVC023=



000
FTUS41 KCTP 171740
TAFBFD
TAF
KBFD 171740Z 1718/1818 28012G18KT P6SM VCSH BKN014 OVC030
      TEMPO 1720/1724 28016G25KT 1 1/2SM -SHSN OVC012
     FM180200 29015G25KT 2SM -SHSN BR OVC012
     FM181200 29011G20KT 5SM -SHSN OVC012=



000
FTUS41 KCTP 171632 AAC
TAFUNV
TAF AMD
KUNV 171632Z 1717/1812 28016G26KT P6SM VCSH BKN025 OVC050
      TEMPO 1803/1807 2SM -SHSN OVC022
     FM180700 30015G26KT P6SM OVC030=



000
FTUS41 KCTP 171540 AAC
TAFBFD
TAF AMD
KBFD 171540Z 1716/1812 28012G18KT 1 1/2SM -SHSN BR BKN008 OVC013
      TEMPO 1720/1724 28016G25KT 1/2SM SHSN OVC007
     FM180800 29015G25KT 2SM -SHSN BR OVC015=



000
FTUS41 KCTP 171540 AAC
TAFBFD
TAF AMD
KBFD 171540Z 1716/1812 28012G18KT 1 1/2SM -SHSN BR BKN008 OVC013
      TEMPO 1720/1724 28016G25KT 1/2SM SHSN OVC007
     FM180800 29015G25KT 2SM -SHSN BR OVC015=



000
FTUS41 KCTP 171540 AAC
TAFJST
TAF AMD
KJST 171540Z 1716/1812 28017G28KT 3SM -SHSN BR BKN006 OVC012
      TEMPO 1716/1718 1 1/2SM -SHSN
     FM171800 28016G30KT 6SM -SHSN BKN008 OVC014
     FM180400 30018G28KT 4SM -SHSN BR OVC016=



000
FTUS41 KCTP 171540 AAC
TAFIPT
TAF AMD
KIPT 171540Z 1716/1812 27012G24KT P6SM BKN030 OVC045
     FM172000 28015G25KT P6SM OVC035
     FM180800 30015G25KT P6SM BKN030=



000
FTUS41 KCTP 171540 AAB
TAFUNV
TAF AMD
KUNV 171540Z 1716/1812 27013G24KT P6SM BKN035 OVC050
     FM171900 28015G25KT P6SM BKN023 OVC035
     FM180700 30015G26KT P6SM OVC030=



000
FTUS41 KCTP 171540 AAB
TAFAOO
TAF AMD
KAOO 171540Z 1716/1812 26012G19KT P6SM VCSH OVC024
     FM171700 28015G25KT P6SM BKN023
     FM180700 30016G26KT P6SM OVC023=



000
FTUS41 KCTP 171540 AAC
TAFJST
TAF AMD
KJST 171540Z 1716/1812 28017G28KT 3SM -SHSN BR BKN006 OVC012
      TEMPO 1716/1718 1 1/2SM -SHSN
     FM171800 28016G30KT 6SM -SHSN BKN008 OVC014
     FM180400 30018G28KT 4SM -SHSN BR OVC016=



000
FTUS41 KCTP 171540 AAC
TAFMDT
TAF AMD
KMDT 171540Z 1716/1812 28012G18KT P6SM BKN035
     FM171700 29015G25KT P6SM BKN040
     FM180900 30015G26KT P6SM BKN030=



000
FTUS41 KCTP 171540 AAB
TAFAOO
TAF AMD
KAOO 171540Z 1716/1812 26012G19KT P6SM VCSH OVC024
     FM171700 28015G25KT P6SM BKN023
     FM180700 30016G26KT P6SM OVC023=



000
FTUS41 KCTP 171540 AAC
TAFIPT
TAF AMD
KIPT 171540Z 1716/1812 27012G24KT P6SM BKN030 OVC045
     FM172000 28015G25KT P6SM OVC035
     FM180800 30015G25KT P6SM BKN030=



000
FTUS41 KCTP 171540 AAB
TAFUNV
TAF AMD
KUNV 171540Z 1716/1812 27013G24KT P6SM BKN035 OVC050
     FM171900 28015G25KT P6SM BKN023 OVC035
     FM180700 30015G26KT P6SM OVC030=



000
FTUS41 KCTP 171540 AAC
TAFMDT
TAF AMD
KMDT 171540Z 1716/1812 28012G18KT P6SM BKN035
     FM171700 29015G25KT P6SM BKN040
     FM180900 30015G26KT P6SM BKN030=



000
FTUS41 KCTP 171454 AAB
TAFMDT
TAF AMD
KMDT 171454Z 1715/1812 31007KT P6SM OVC040
     FM171700 29015G25KT P6SM BKN040
     FM180900 30015G26KT P6SM BKN030=



000
FTUS41 KCTP 171454 AAB
TAFMDT
TAF AMD
KMDT 171454Z 1715/1812 31007KT P6SM OVC040
     FM171700 29015G25KT P6SM BKN040
     FM180900 30015G26KT P6SM BKN030=



000
FTUS41 KCTP 171446 AAB
TAFJST
TAF AMD
KJST 171446Z 1715/1812 28017G28KT 3SM -SHSN BR BKN006 OVC012
      TEMPO 1716/1718 1 1/2SM -SHSN
     FM171800 28016G30KT 6SM -SHSN BKN008 OVC014
     FM180400 30018G28KT 4SM -SHSN BR OVC016=



000
FTUS41 KCTP 171446 AAB
TAFJST
TAF AMD
KJST 171446Z 1715/1812 28017G28KT 3SM -SHSN BR BKN006 OVC012
      TEMPO 1716/1718 1 1/2SM -SHSN
     FM171800 28016G30KT 6SM -SHSN BKN008 OVC014
     FM180400 30018G28KT 4SM -SHSN BR OVC016=



000
FTUS41 KCTP 171444 AAB
TAFIPT
TAF AMD
KIPT 171444Z 1715/1812 28011KT P6SM BKN035
     FM171600 28012G24KT P6SM BKN030 OVC045
     FM172000 28015G25KT P6SM OVC035
     FM180800 30015G25KT P6SM BKN030=



000
FTUS41 KCTP 171442 AAA
TAFUNV
TAF AMD
KUNV 171442Z 1715/1812 27013G22KT P6SM OVC022
     FM171900 28015G25KT P6SM BKN022 OVC030
     FM180700 30015G26KT P6SM OVC030=



000
FTUS41 KCTP 171442 AAA
TAFUNV
TAF AMD
KUNV 171442Z 1715/1812 27013G22KT P6SM OVC022
     FM171900 28015G25KT P6SM BKN022 OVC030
     FM180700 30015G26KT P6SM OVC030=



000
FTUS41 KCTP 171439 AAA
TAFAOO
TAF AMD
KAOO 171439Z 1715/1812 26012G25KT P6SM VCSH OVC021
     FM171800 28015G25KT P6SM BKN023
     FM180700 30016G26KT P6SM OVC023=



000
FTUS41 KCTP 171439 AAA
TAFAOO
TAF AMD
KAOO 171439Z 1715/1812 26012G25KT P6SM VCSH OVC021
     FM171800 28015G25KT P6SM BKN023
     FM180700 30016G26KT P6SM OVC023=



000
FTUS41 KCTP 171437 AAB
TAFBFD
TAF AMD
KBFD 171437Z 1715/1812 28012G24KT 1 1/2SM -SHSN BR BKN009 OVC013
      TEMPO 1720/1724 1/2SM SHSN OVC007
     FM180800 29015G25KT 2SM -SHSN BR OVC015=



000
FTUS41 KCTP 171437 AAB
TAFBFD
TAF AMD
KBFD 171437Z 1715/1812 28012G24KT 1 1/2SM -SHSN BR BKN009 OVC013
      TEMPO 1720/1724 1/2SM SHSN OVC007
     FM180800 29015G25KT 2SM -SHSN BR OVC015=



000
FTUS41 KCTP 171259 AAA
TAFJST
TAF AMD
KJST 171259Z 1713/1812 28015G28KT 5SM -SHSN BR BKN004 OVC012
     FM171800 28016G28KT P6SM BKN025
     FM180400 30018G28KT 4SM -SHSN BR OVC016=



000
FTUS41 KCTP 171259 AAA
TAFJST
TAF AMD
KJST 171259Z 1713/1812 28015G28KT 5SM -SHSN BR BKN004 OVC012
     FM171800 28016G28KT P6SM BKN025
     FM180400 30018G28KT 4SM -SHSN BR OVC016=



000
FTUS41 KCTP 171223 AAA
TAFBFD
TAF AMD
KBFD 171223Z 1712/1812 27012G24KT 5SM -SHSN BR OVC009
     FM171700 28015G25KT P6SM BKN025
     FM180300 29015G25KT 2SM -SHSN BR OVC015=



000
FTUS41 KCTP 171223 AAA
TAFBFD
TAF AMD
KBFD 171223Z 1712/1812 27012G24KT 5SM -SHSN BR OVC009
     FM171700 28015G25KT P6SM BKN025
     FM180300 29015G25KT 2SM -SHSN BR OVC015=



000
FTUS41 KCTP 171145 AAA
TAFIPT
TAF AMD
KIPT 171145Z 1712/1812 08005KT 3/4SM -RA BR SCT005 BKN025 OVC035
      WS020/27030KT
     FM171400 26012G25KT P6SM BKN030
     FM172000 28015G25KT P6SM BKN035
     FM180800 30015G25KT P6SM BKN030=



000
FTUS41 KCTP 171145 AAA
TAFMDT
TAF AMD
KMDT 171145Z 1712/1812 29007KT 2SM BR SCT009 OVC035 WS020/27030KT
     FM171400 28015G25KT P6SM BKN035
     FM180900 30015G26KT P6SM BKN035=



000
FTUS41 KCTP 171145 AAA
TAFIPT
TAF AMD
KIPT 171145Z 1712/1812 08005KT 3/4SM -RA BR SCT005 BKN025 OVC035
      WS020/27030KT
     FM171400 26012G25KT P6SM BKN030
     FM172000 28015G25KT P6SM BKN035
     FM180800 30015G25KT P6SM BKN030=



000
FTUS41 KCTP 171138
TAFBFD
TAF
KBFD 171138Z 1712/1812 27012G24KT P6SM -SHRA OVC012
      TEMPO 1712/1714 5SM -SHSN BR OVC009
     FM171700 28015G25KT P6SM BKN025
     FM180300 29015G25KT 2SM -SHSN BR OVC015=



000
FTUS41 KCTP 171138
TAFJST
TAF
KJST 171138Z 1712/1812 28015G28KT P6SM -SHRA BKN004 OVC012
     FM171800 28016G28KT P6SM BKN025
     FM180400 30018G28KT 4SM -SHSN BR OVC016=



000
FTUS41 KCTP 171138
TAFMDT
TAF
KMDT 171138Z 1712/1812 29007KT 2SM BR SCT009 OVC035
     FM171400 28015G25KT P6SM BKN035
     FM180900 30015G26KT P6SM BKN035=



000
FTUS41 KCTP 171138
TAFUNV
TAF
KUNV 171138Z 1712/1812 27012G25KT P6SM BKN018 OVC025
     FM171900 28015G25KT P6SM BKN035
     FM180700 30015G26KT P6SM OVC030=



000
FTUS41 KCTP 171138
TAFIPT
TAF
KIPT 171138Z 1712/1812 08005KT 3/4SM -RA BR SCT005 BKN025 OVC035
     FM171400 26012G25KT P6SM BKN030
     FM172000 28015G25KT P6SM BKN035
     FM180800 30015G25KT P6SM BKN030=



000
FTUS41 KCTP 171138
TAFAOO
TAF
KAOO 171138Z 1712/1812 27012G25KT P6SM VCSH BKN014 OVC025
     FM171900 28015G25KT P6SM BKN035
     FM180700 30016G26KT P6SM OVC030=



000
FTUS41 KCTP 171138
TAFAOO
TAF
KAOO 171138Z 1712/1812 27012G25KT P6SM VCSH BKN014 OVC025
     FM171900 28015G25KT P6SM BKN035
     FM180700 30016G26KT P6SM OVC030=



000
FTUS41 KCTP 171138
TAFBFD
TAF
KBFD 171138Z 1712/1812 27012G24KT P6SM -SHRA OVC012
      TEMPO 1712/1714 5SM -SHSN BR OVC009
     FM171700 28015G25KT P6SM BKN025
     FM180300 29015G25KT 2SM -SHSN BR OVC015=



000
FTUS41 KCTP 171138
TAFMDT
TAF
KMDT 171138Z 1712/1812 29007KT 2SM BR SCT009 OVC035
     FM171400 28015G25KT P6SM BKN035
     FM180900 30015G26KT P6SM BKN035=



000
FTUS41 KCTP 171138
TAFIPT
TAF
KIPT 171138Z 1712/1812 08005KT 3/4SM -RA BR SCT005 BKN025 OVC035
     FM171400 26012G25KT P6SM BKN030
     FM172000 28015G25KT P6SM BKN035
     FM180800 30015G25KT P6SM BKN030=



000
FTUS41 KCTP 171138
TAFJST
TAF
KJST 171138Z 1712/1812 28015G28KT P6SM -SHRA BKN004 OVC012
     FM171800 28016G28KT P6SM BKN025
     FM180400 30018G28KT 4SM -SHSN BR OVC016=



000
FTUS41 KCTP 171138
TAFUNV
TAF
KUNV 171138Z 1712/1812 27012G25KT P6SM BKN018 OVC025
     FM171900 28015G25KT P6SM BKN035
     FM180700 30015G26KT P6SM OVC030=



000
FTUS41 KCTP 171032 AAB
TAFIPT
TAF AMD
KIPT 171032Z 1711/1806 00000KT 3/4SM -RA BR BKN005 OVC025
     FM171300 27010G20KT P6SM BKN025
     FM171600 28015G25KT P6SM SCT030=



000
FTUS41 KCTP 171032 AAB
TAFIPT
TAF AMD
KIPT 171032Z 1711/1806 00000KT 3/4SM -RA BR BKN005 OVC025
     FM171300 27010G20KT P6SM BKN025
     FM171600 28015G25KT P6SM SCT030=



000
FTUS41 KCTP 171008 AAE
TAFJST
TAF AMD
KJST 171008Z 1710/1806 28015G28KT 1SM -SHRA BR OVC004 WS020/27040KT
     FM171400 27016G26KT 6SM -SHRA BR OVC012 WS020/27040KT
     FM171600 28016G28KT P6SM BKN018
     FM180300 30015G28KT 4SM -SHSN BR OVC012=



000
FTUS41 KCTP 171008 AAE
TAFJST
TAF AMD
KJST 171008Z 1710/1806 28015G28KT 1SM -SHRA BR OVC004 WS020/27040KT
     FM171400 27016G26KT 6SM -SHRA BR OVC012 WS020/27040KT
     FM171600 28016G28KT P6SM BKN018
     FM180300 30015G28KT 4SM -SHSN BR OVC012=



000
FTUS41 KCTP 171008 AAE
TAFJST
TAF AMD
KJST 171008Z 1710/1806 28015G28KT 1SM -SHRA BR OVC004 WS020/27040KT
     FM171400 27016G26KT 6SM -SHRA BR OVC012 WS020/27040KT
     FM171600 28016G28KT P6SM BKN018
     FM180300 30015G28KT 4SM -SHSN BR OVC012=



000
FTUS41 KCTP 171007 AAD
TAFJST
TAF AMD
KJST 171007Z 1710/1806 28015G28KT 3SM -SHRA BR OVC004 WS020/27040KT
     FM171400 27016G26KT 6SM -SHRA BR OVC012 WS020/27040KT
     FM171600 28016G28KT P6SM BKN018
     FM180300 30015G28KT 4SM -SHSN BR OVC012=



000
FTUS41 KCTP 171007 AAD
TAFJST
TAF AMD
KJST 171007Z 1710/1806 28015G28KT 3SM -SHRA BR OVC004 WS020/27040KT
     FM171400 27016G26KT 6SM -SHRA BR OVC012 WS020/27040KT
     FM171600 28016G28KT P6SM BKN018
     FM180300 30015G28KT 4SM -SHSN BR OVC012=



000
FTUS41 KCTP 171007 AAD
TAFJST
TAF AMD
KJST 171007Z 1710/1806 28015G28KT 3SM -SHRA BR OVC004 WS020/27040KT
     FM171400 27016G26KT 6SM -SHRA BR OVC012 WS020/27040KT
     FM171600 28016G28KT P6SM BKN018
     FM180300 30015G28KT 4SM -SHSN BR OVC012=



000
FTUS41 KCTP 171007 AAD
TAFJST
TAF AMD
KJST 171007Z 1710/1806 28015G28KT 3SM -SHRA BR OVC004 WS020/27040KT
     FM171400 27016G26KT 6SM -SHRA BR OVC012 WS020/27040KT
     FM171600 28016G28KT P6SM BKN018
     FM180300 30015G28KT 4SM -SHSN BR OVC012=



000
FTUS41 KCTP 170936 AAA
TAFIPT
TAF AMD
KIPT 170936Z 1710/1806 00000KT 2SM -RA BR BKN005 OVC025
     FM171300 27010G20KT P6SM BKN025
     FM171600 28015G25KT P6SM SCT030=



000
FTUS41 KCTP 170936 AAC
TAFBFD
TAF AMD
KBFD 170936Z 1710/1806 25007KT P6SM -RA OVC005
     FM171200 26012G20KT 2SM -SHSN BR OVC008 WS020/27035KT
     FM171700 25015G25KT P6SM BKN018
     FM180100 29012G24KT 2SM -SHSN BR OVC009=



000
FTUS41 KCTP 170936 AAC
TAFUNV
TAF AMD
KUNV 170936Z 1710/1806 25009G16KT P6SM BKN018 OVC025 WS020/27035KT
     FM171400 27012G22KT P6SM OVC025 WS020/27035KT
     FM171600 28015G25KT P6SM SCT030=



000
FTUS41 KCTP 170936 AAB
TAFMDT
TAF AMD
KMDT 170936Z 1710/1806 31007KT 3SM BR SCT007 BKN040
     FM171300 29012G20KT P6SM SCT035=



000
FTUS41 KCTP 170936 AAB
TAFAOO
TAF AMD
KAOO 170936Z 1710/1806 24007KT P6SM VCSH BKN014 OVC025
      WS020/27035KT
     FM171400 27013G25KT P6SM OVC025 WS020/27035KT
     FM171600 28015G25KT P6SM SCT030=



000
FTUS41 KCTP 170936 AAC
TAFJST
TAF AMD
KJST 170936Z 1710/1806 28015G28KT 4SM BR OVC004 WS020/27040KT
     FM171400 27016G26KT 6SM -SHRA BR OVC012 WS020/27040KT
     FM171600 28016G28KT P6SM BKN018
     FM180300 30015G28KT 4SM -SHSN BR OVC012=



000
FTUS41 KCTP 170936 AAC
TAFUNV
TAF AMD
KUNV 170936Z 1710/1806 25009G16KT P6SM BKN018 OVC025 WS020/27035KT
     FM171400 27012G22KT P6SM OVC025 WS020/27035KT
     FM171600 28015G25KT P6SM SCT030=



000
FTUS41 KCTP 170936 AAC
TAFBFD
TAF AMD
KBFD 170936Z 1710/1806 25007KT P6SM -RA OVC005
     FM171200 26012G20KT 2SM -SHSN BR OVC008 WS020/27035KT
     FM171700 25015G25KT P6SM BKN018
     FM180100 29012G24KT 2SM -SHSN BR OVC009=



000
FTUS41 KCTP 170936 AAB
TAFAOO
TAF AMD
KAOO 170936Z 1710/1806 24007KT P6SM VCSH BKN014 OVC025
      WS020/27035KT
     FM171400 27013G25KT P6SM OVC025 WS020/27035KT
     FM171600 28015G25KT P6SM SCT030=



000
FTUS41 KCTP 170936 AAC
TAFJST
TAF AMD
KJST 170936Z 1710/1806 28015G28KT 4SM BR OVC004 WS020/27040KT
     FM171400 27016G26KT 6SM -SHRA BR OVC012 WS020/27040KT
     FM171600 28016G28KT P6SM BKN018
     FM180300 30015G28KT 4SM -SHSN BR OVC012=



000
FTUS41 KCTP 170936 AAA
TAFIPT
TAF AMD
KIPT 170936Z 1710/1806 00000KT 2SM -RA BR BKN005 OVC025
     FM171300 27010G20KT P6SM BKN025
     FM171600 28015G25KT P6SM SCT030=



000
FTUS41 KCTP 170936 AAB
TAFMDT
TAF AMD
KMDT 170936Z 1710/1806 31007KT 3SM BR SCT007 BKN040
     FM171300 29012G20KT P6SM SCT035=



000
FTUS41 KCTP 170808 AAB
TAFJST
TAF AMD
KJST 170808Z 1708/1806 28015G28KT P6SM OVC004 WS020/27040KT
     FM171400 27016G26KT 6SM -SHRA BR OVC012 WS020/27040KT
     FM171600 28016G28KT P6SM BKN018
     FM180300 30015G28KT 4SM -SHSN BR OVC012=



000
FTUS41 KCTP 170808 AAB
TAFJST
TAF AMD
KJST 170808Z 1708/1806 28015G28KT P6SM OVC004 WS020/27040KT
     FM171400 27016G26KT 6SM -SHRA BR OVC012 WS020/27040KT
     FM171600 28016G28KT P6SM BKN018
     FM180300 30015G28KT 4SM -SHSN BR OVC012=



000
FTUS41 KCTP 170808 AAB
TAFJST
TAF AMD
KJST 170808Z 1708/1806 28015G28KT P6SM OVC004 WS020/27040KT
     FM171400 27016G26KT 6SM -SHRA BR OVC012 WS020/27040KT
     FM171600 28016G28KT P6SM BKN018
     FM180300 30015G28KT 4SM -SHSN BR OVC012=



000
FTUS41 KCTP 170808 AAB
TAFJST
TAF AMD
KJST 170808Z 1708/1806 28015G28KT P6SM OVC004 WS020/27040KT
     FM171400 27016G26KT 6SM -SHRA BR OVC012 WS020/27040KT
     FM171600 28016G28KT P6SM BKN018
     FM180300 30015G28KT 4SM -SHSN BR OVC012=



000
FTUS41 KCTP 170807 AAB
TAFBFD
TAF AMD
KBFD 170807Z 1708/1806 25007KT P6SM -RA OVC005
     FM171200 26012G20KT 2SM -SHSN BR OVC008 WS020/27035KT
     FM171700 25015G25KT P6SM BKN018
     FM180100 29012G24KT 2SM -SHSN BR OVC009=



000
FTUS41 KCTP 170807 AAB
TAFBFD
TAF AMD
KBFD 170807Z 1708/1806 25007KT P6SM -RA OVC005
     FM171200 26012G20KT 2SM -SHSN BR OVC008 WS020/27035KT
     FM171700 25015G25KT P6SM BKN018
     FM180100 29012G24KT 2SM -SHSN BR OVC009=



000
FTUS41 KCTP 170807 AAB
TAFBFD
TAF AMD
KBFD 170807Z 1708/1806 25007KT P6SM -RA OVC005
     FM171200 26012G20KT 2SM -SHSN BR OVC008 WS020/27035KT
     FM171700 25015G25KT P6SM BKN018
     FM180100 29012G24KT 2SM -SHSN BR OVC009=



000
FTUS41 KCTP 170742 AAB
TAFUNV
TAF AMD
KUNV 170742Z 1708/1806 25009G16KT P6SM OVC018 WS020/27035KT
     FM171400 27012G22KT P6SM OVC025 WS020/27035KT
     FM171600 28015G25KT P6SM SCT030=



000
FTUS41 KCTP 170742 AAB
TAFUNV
TAF AMD
KUNV 170742Z 1708/1806 25009G16KT P6SM OVC018 WS020/27035KT
     FM171400 27012G22KT P6SM OVC025 WS020/27035KT
     FM171600 28015G25KT P6SM SCT030=



000
FTUS41 KCTP 170742 AAB
TAFUNV
TAF AMD
KUNV 170742Z 1708/1806 25009G16KT P6SM OVC018 WS020/27035KT
     FM171400 27012G22KT P6SM OVC025 WS020/27035KT
     FM171600 28015G25KT P6SM SCT030=



000
FTUS41 KCTP 170742 AAB
TAFUNV
TAF AMD
KUNV 170742Z 1708/1806 25009G16KT P6SM OVC018 WS020/27035KT
     FM171400 27012G22KT P6SM OVC025 WS020/27035KT
     FM171600 28015G25KT P6SM SCT030=



000
FTUS41 KCTP 170724 AAA
TAFMDT
TAF AMD
KMDT 170724Z 1707/1806 31007KT 3SM BR SCT007 BKN040
     FM171300 29012G20KT P6SM SCT035=



000
FTUS41 KCTP 170724 AAA
TAFMDT
TAF AMD
KMDT 170724Z 1707/1806 31007KT 3SM BR SCT007 BKN040
     FM171300 29012G20KT P6SM SCT035=



000
FTUS41 KCTP 170724 AAA
TAFMDT
TAF AMD
KMDT 170724Z 1707/1806 31007KT 3SM BR SCT007 BKN040
     FM171300 29012G20KT P6SM SCT035=



000
FTUS41 KCTP 170722 AAA
TAFUNV
TAF AMD
KUNV 170722Z 1707/1806 25009G16KT P6SM OVC020 WS020/27035KT
     FM171400 27012G22KT P6SM OVC025 WS020/27035KT
     FM171600 28015G25KT P6SM SCT030=



000
FTUS41 KCTP 170722 AAA
TAFUNV
TAF AMD
KUNV 170722Z 1707/1806 25009G16KT P6SM OVC020 WS020/27035KT
     FM171400 27012G22KT P6SM OVC025 WS020/27035KT
     FM171600 28015G25KT P6SM SCT030=



000
FTUS41 KCTP 170722 AAA
TAFUNV
TAF AMD
KUNV 170722Z 1707/1806 25009G16KT P6SM OVC020 WS020/27035KT
     FM171400 27012G22KT P6SM OVC025 WS020/27035KT
     FM171600 28015G25KT P6SM SCT030=



000
FTUS41 KCTP 170721 AAA
TAFAOO
TAF AMD
KAOO 170721Z 1707/1806 24007KT P6SM VCSH BKN018 OVC025
      WS020/27035KT
     FM171400 27013G25KT P6SM OVC025 WS020/27035KT
     FM171600 28015G25KT P6SM SCT030=



000
FTUS41 KCTP 170721 AAA
TAFAOO
TAF AMD
KAOO 170721Z 1707/1806 24007KT P6SM VCSH BKN018 OVC025
      WS020/27035KT
     FM171400 27013G25KT P6SM OVC025 WS020/27035KT
     FM171600 28015G25KT P6SM SCT030=



000
FTUS41 KCTP 170719 AAA
TAFJST
TAF AMD
KJST 170719Z 1707/1806 28015G28KT 3SM -SHRA BR OVC004 WS020/27040KT
     FM171400 27016G26KT 6SM -SHRA BR OVC012 WS020/27040KT
     FM171600 28016G28KT P6SM BKN018
     FM180300 30015G28KT 4SM -SHSN BR OVC012=



000
FTUS41 KCTP 170719 AAA
TAFJST
TAF AMD
KJST 170719Z 1707/1806 28015G28KT 3SM -SHRA BR OVC004 WS020/27040KT
     FM171400 27016G26KT 6SM -SHRA BR OVC012 WS020/27040KT
     FM171600 28016G28KT P6SM BKN018
     FM180300 30015G28KT 4SM -SHSN BR OVC012=



000
FTUS41 KCTP 170719 AAA
TAFJST
TAF AMD
KJST 170719Z 1707/1806 28015G28KT 3SM -SHRA BR OVC004 WS020/27040KT
     FM171400 27016G26KT 6SM -SHRA BR OVC012 WS020/27040KT
     FM171600 28016G28KT P6SM BKN018
     FM180300 30015G28KT 4SM -SHSN BR OVC012=



000
FTUS41 KCTP 170717 AAA
TAFBFD
TAF AMD
KBFD 170717Z 1707/1806 25007KT P6SM -RA OVC006
     FM171200 26012G20KT 2SM -SHSN BR OVC008 WS020/27035KT
     FM171700 25015G25KT P6SM BKN018
     FM180100 29012G24KT 2SM -SHSN BR OVC009=



000
FTUS41 KCTP 170717 AAA
TAFBFD
TAF AMD
KBFD 170717Z 1707/1806 25007KT P6SM -RA OVC006
     FM171200 26012G20KT 2SM -SHSN BR OVC008 WS020/27035KT
     FM171700 25015G25KT P6SM BKN018
     FM180100 29012G24KT 2SM -SHSN BR OVC009=



000
FTUS41 KCTP 170717 AAA
TAFBFD
TAF AMD
KBFD 170717Z 1707/1806 25007KT P6SM -RA OVC006
     FM171200 26012G20KT 2SM -SHSN BR OVC008 WS020/27035KT
     FM171700 25015G25KT P6SM BKN018
     FM180100 29012G24KT 2SM -SHSN BR OVC009=



000
FTUS41 KCTP 170717 AAA
TAFBFD
TAF AMD
KBFD 170717Z 1707/1806 25007KT P6SM -RA OVC006
     FM171200 26012G20KT 2SM -SHSN BR OVC008 WS020/27035KT
     FM171700 25015G25KT P6SM BKN018
     FM180100 29012G24KT 2SM -SHSN BR OVC009=



000
FTUS41 KCTP 170540
TAFAOO
TAF
KAOO 170540Z 1706/1806 25012G20KT 4SM -SHRA BR OVC025 WS020/27035KT
     FM171400 27013G25KT P6SM OVC025 WS020/27035KT
     FM171600 28015G25KT P6SM SCT030=



000
FTUS41 KCTP 170540
TAFBFD
TAF
KBFD 170540Z 1706/1806 24003KT 3SM -RA BR OVC003
     FM170800 26009G15KT 2SM -SHSN BR OVC002
     FM171200 26012G20KT 2SM -SHSN BR OVC008 WS020/27035KT
     FM171700 25015G25KT P6SM BKN018
     FM180100 29012G24KT 2SM -SHSN BR OVC009=



000
FTUS41 KCTP 170540
TAFUNV
TAF
KUNV 170540Z 1706/1806 00000KT 3SM BR SCT007 OVC020
     FM170700 25010KT 3SM -SHRA BR SCT007 OVC015 WS020/27035KT
     FM171400 27012G22KT P6SM OVC025 WS020/27035KT
     FM171600 28015G25KT P6SM SCT030=



000
FTUS41 KCTP 170540
TAFIPT
TAF
KIPT 170540Z 1706/1806 00000KT 1SM BR BKN003 OVC025
     FM170900 25008KT 3SM -RA BR BKN007 OVC015
     FM171400 27010G20KT P6SM BKN025
     FM171600 28015G25KT P6SM SCT030=



000
FTUS41 KCTP 170540
TAFMDT
TAF
KMDT 170540Z 1706/1806 29007KT 1 1/2SM BR OVC009
     FM170800 30008KT P6SM BKN035
     FM171300 29012G20KT P6SM SCT035=



000
FTUS41 KCTP 170540
TAFJST
TAF
KJST 170540Z 1706/1806 26012KT P6SM VCSH OVC005
     FM170700 25012G20KT 3SM -SHRA BR OVC005 WS020/27040KT
     FM171400 27016G26KT 6SM -SHRA BR OVC012 WS020/27040KT
     FM171600 28016G28KT P6SM BKN018
     FM180300 30015G28KT 4SM -SHSN BR OVC012=



000
FTUS41 KCTP 170540
TAFUNV
TAF
KUNV 170540Z 1706/1806 00000KT 3SM BR SCT007 OVC020
     FM170700 25010KT 3SM -SHRA BR SCT007 OVC015 WS020/27035KT
     FM171400 27012G22KT P6SM OVC025 WS020/27035KT
     FM171600 28015G25KT P6SM SCT030=



000
FTUS41 KCTP 170540
TAFJST
TAF
KJST 170540Z 1706/1806 26012KT P6SM VCSH OVC005
     FM170700 25012G20KT 3SM -SHRA BR OVC005 WS020/27040KT
     FM171400 27016G26KT 6SM -SHRA BR OVC012 WS020/27040KT
     FM171600 28016G28KT P6SM BKN018
     FM180300 30015G28KT 4SM -SHSN BR OVC012=



000
FTUS41 KCTP 170540
TAFMDT
TAF
KMDT 170540Z 1706/1806 29007KT 1 1/2SM BR OVC009
     FM170800 30008KT P6SM BKN035
     FM171300 29012G20KT P6SM SCT035=



000
FTUS41 KCTP 170540
TAFIPT
TAF
KIPT 170540Z 1706/1806 00000KT 1SM BR BKN003 OVC025
     FM170900 25008KT 3SM -RA BR BKN007 OVC015
     FM171400 27010G20KT P6SM BKN025
     FM171600 28015G25KT P6SM SCT030=



000
FTUS41 KCTP 170540
TAFBFD
TAF
KBFD 170540Z 1706/1806 24003KT 3SM -RA BR OVC003
     FM170800 26009G15KT 2SM -SHSN BR OVC002
     FM171200 26012G20KT 2SM -SHSN BR OVC008 WS020/27035KT
     FM171700 25015G25KT P6SM BKN018
     FM180100 29012G24KT 2SM -SHSN BR OVC009=



000
FTUS41 KCTP 170540
TAFAOO
TAF
KAOO 170540Z 1706/1806 25012G20KT 4SM -SHRA BR OVC025 WS020/27035KT
     FM171400 27013G25KT P6SM OVC025 WS020/27035KT
     FM171600 28015G25KT P6SM SCT030=



000
FTUS41 KCTP 170319 AAB
TAFMDT
TAF AMD
KMDT 170319Z 1703/1724 30003KT 1 1/2SM -RA BR OVC007
     FM170500 24006KT 5SM BR VCSH BKN007 OVC025
     FM170600 29008KT P6SM BKN025
     FM170800 30008KT P6SM OVC050
     FM171300 29012G20KT P6SM SCT030=



000
FTUS41 KCTP 170319 AAB
TAFMDT
TAF AMD
KMDT 170319Z 1703/1724 30003KT 1 1/2SM -RA BR OVC007
     FM170500 24006KT 5SM BR VCSH BKN007 OVC025
     FM170600 29008KT P6SM BKN025
     FM170800 30008KT P6SM OVC050
     FM171300 29012G20KT P6SM SCT030=



000
FTUS41 KCTP 170318 AAB
TAFIPT
TAF AMD
KIPT 170318Z 1703/1724 00000KT 3SM -RA BR FEW007 BKN012 OVC023
     FM170600 25008KT 3SM -RA BR BKN007 OVC015
     FM171400 27010G20KT 6SM BR OVC025=



000
FTUS41 KCTP 170317 AAA
TAFUNV
TAF AMD
KUNV 170317Z 1703/1724 00000KT 3SM BR BKN007 BKN015 OVC045
     FM170600 25010KT 3SM -SHRA BR SCT007 OVC015 WS020/27035KT
     FM171400 27012G22KT 6SM BR OVC025 WS020/27035KT=



000
FTUS41 KCTP 170317 AAB
TAFJST
TAF AMD
KJST 170317Z 1703/1724 26012KT P6SM VCSH OVC006
     FM170600 25012G20KT 3SM -SHRA BR OVC005 WS020/27040KT
     FM171400 27016G26KT 6SM -SHRA BR OVC012 WS020/27040KT=



000
FTUS41 KCTP 170317 AAA
TAFUNV
TAF AMD
KUNV 170317Z 1703/1724 00000KT 3SM BR BKN007 BKN015 OVC045
     FM170600 25010KT 3SM -SHRA BR SCT007 OVC015 WS020/27035KT
     FM171400 27012G22KT 6SM BR OVC025 WS020/27035KT=



000
FTUS41 KCTP 170316 AAA
TAFBFD
TAF AMD
KBFD 170316Z 1703/1724 24003KT 3SM -RA BR OVC003
     FM170800 26009G15KT 2SM -SHSN BR OVC002
     FM171200 26012G20KT 2SM -SHSN BR OVC008 WS020/27035KT=



000
FTUS41 KCTP 170316 AAA
TAFBFD
TAF AMD
KBFD 170316Z 1703/1724 24003KT 3SM -RA BR OVC003
     FM170800 26009G15KT 2SM -SHSN BR OVC002
     FM171200 26012G20KT 2SM -SHSN BR OVC008 WS020/27035KT=



000
FTUS41 KCTP 170307 AAA
TAFAOO
TAF AMD
KAOO 170307Z 1703/1724 24004KT 3SM BR BKN015 OVC025
     FM170600 25012G20KT 4SM -SHRA BR OVC025 WS020/27035KT
     FM171400 27013G25KT 6SM BR OVC025 WS020/27035KT=



000
FTUS41 KCTP 170307 AAA
TAFAOO
TAF AMD
KAOO 170307Z 1703/1724 24004KT 3SM BR BKN015 OVC025
     FM170600 25012G20KT 4SM -SHRA BR OVC025 WS020/27035KT
     FM171400 27013G25KT 6SM BR OVC025 WS020/27035KT=



000
FTUS41 KCTP 170207 AAA
TAFMDT
TAF AMD
KMDT 170207Z 1702/1724 00000KT 1/2SM -DZ FG OVC004
     FM170400 24006KT 5SM BR BKN025
     FM170600 29008KT P6SM SCT030
     FM171300 29012G20KT P6SM SCT030=



000
FTUS41 KCTP 170207 AAA
TAFMDT
TAF AMD
KMDT 170207Z 1702/1724 00000KT 1/2SM -DZ FG OVC004
     FM170400 24006KT 5SM BR BKN025
     FM170600 29008KT P6SM SCT030
     FM171300 29012G20KT P6SM SCT030=



000
FTUS41 KCTP 170059 AAA
TAFJST
TAF AMD
KJST 170059Z 1701/1724 27008KT 5SM -RA BR BKN005 OVC015
     FM170600 25012G20KT 3SM -SHRA BR OVC005 WS020/27040KT
     FM171400 27016G26KT 6SM -SHRA BR OVC012 WS020/27040KT=



000
FTUS41 KCTP 170059 AAA
TAFJST
TAF AMD
KJST 170059Z 1701/1724 27008KT 5SM -RA BR BKN005 OVC015
     FM170600 25012G20KT 3SM -SHRA BR OVC005 WS020/27040KT
     FM171400 27016G26KT 6SM -SHRA BR OVC012 WS020/27040KT=



000
FTUS41 KCTP 170050 AAA
TAFIPT
TAF AMD
KIPT 170050Z 1701/1724 00000KT 2SM BR OVC009
     FM170600 25008KT 3SM BR OVC015
     FM171400 27010G20KT 6SM BR OVC025=



000
FTUS41 KCTP 162333
TAFIPT
TAF
KIPT 162333Z 1700/1724 00000KT 6SM BR OVC009
     FM170600 25008KT 3SM BR OVC015
     FM171400 27010G20KT 6SM BR OVC025=



000
FTUS41 KCTP 162333
TAFUNV
TAF
KUNV 162333Z 1700/1724 22005KT 3SM -RA BR OVC007
     FM170600 25010KT 3SM -SHRA BR SCT007 OVC015 WS020/27035KT
     FM171400 27012G22KT 6SM BR OVC025 WS020/27035KT=



000
FTUS41 KCTP 162333
TAFAOO
TAF
KAOO 162333Z 1700/1724 17004KT 4SM BR OVC008
     FM170600 25012G20KT 3SM -SHRA BR OVC015 WS020/27035KT
     FM171400 27013G25KT 6SM BR OVC025 WS020/27035KT=



000
FTUS41 KCTP 162333
TAFJST
TAF
KJST 162333Z 1700/1724 21006KT 3SM RA BR SCT005 BKN011 OVC025
     FM170600 25012G20KT 3SM -SHRA BR OVC005 WS020/27040KT
     FM171400 27016G26KT 6SM -SHRA BR OVC012 WS020/27040KT=



000
FTUS41 KCTP 162333
TAFBFD
TAF
KBFD 162333Z 1700/1724 17005KT 6SM -RA BR OVC003
     FM170800 26009G15KT 2SM -SHSN BR OVC002
     FM171200 26012G20KT 2SM -SHSN BR OVC008 WS020/27035KT=



000
FTUS41 KCTP 162333
TAFMDT
TAF
KMDT 162333Z 1700/1724 00000KT 1SM -DZ BR OVC004
     FM170200 24006KT 6SM BR BKN025
     FM170600 29008KT P6SM SCT030
     FM171300 29012G20KT P6SM SCT030=



000
FTUS41 KCTP 162333
TAFMDT
TAF
KMDT 162333Z 1700/1724 00000KT 1SM -DZ BR OVC004
     FM170200 24006KT 6SM BR BKN025
     FM170600 29008KT P6SM SCT030
     FM171300 29012G20KT P6SM SCT030=



000
FTUS41 KCTP 162333
TAFIPT
TAF
KIPT 162333Z 1700/1724 00000KT 6SM BR OVC009
     FM170600 25008KT 3SM BR OVC015
     FM171400 27010G20KT 6SM BR OVC025=



000
FTUS41 KCTP 162333
TAFBFD
TAF
KBFD 162333Z 1700/1724 17005KT 6SM -RA BR OVC003
     FM170800 26009G15KT 2SM -SHSN BR OVC002
     FM171200 26012G20KT 2SM -SHSN BR OVC008 WS020/27035KT=



000
FTUS41 KCTP 162333
TAFJST
TAF
KJST 162333Z 1700/1724 21006KT 3SM RA BR SCT005 BKN011 OVC025
     FM170600 25012G20KT 3SM -SHRA BR OVC005 WS020/27040KT
     FM171400 27016G26KT 6SM -SHRA BR OVC012 WS020/27040KT=



000
FTUS41 KCTP 162333
TAFUNV
TAF
KUNV 162333Z 1700/1724 22005KT 3SM -RA BR OVC007
     FM170600 25010KT 3SM -SHRA BR SCT007 OVC015 WS020/27035KT
     FM171400 27012G22KT 6SM BR OVC025 WS020/27035KT=



000
FTUS41 KCTP 162333
TAFAOO
TAF
KAOO 162333Z 1700/1724 17004KT 4SM BR OVC008
     FM170600 25012G20KT 3SM -SHRA BR OVC015 WS020/27035KT
     FM171400 27013G25KT 6SM BR OVC025 WS020/27035KT=



000
FTUS41 KCTP 162135 AAB
TAFJST
TAF AMD
KJST 162135Z 1622/1718 18007KT 3SM -RA BR FEW010 SCT026 OVC040
     FM170600 25012G20KT 3SM -SHRA BR OVC005 WS020/27040KT
     FM171400 27016G26KT 6SM -SHRA BR OVC012 WS020/27040KT=



000
FTUS41 KCTP 162135 AAB
TAFJST
TAF AMD
KJST 162135Z 1622/1718 18007KT 3SM -RA BR FEW010 SCT026 OVC040
     FM170600 25012G20KT 3SM -SHRA BR OVC005 WS020/27040KT
     FM171400 27016G26KT 6SM -SHRA BR OVC012 WS020/27040KT=



000
FTUS41 KCTP 162135 AAB
TAFAOO
TAF AMD
KAOO 162135Z 1622/1718 16004KT 6SM BR OVC007
     FM162300 20006KT 4SM BR BKN008 OVC015
     FM170600 25012G20KT 3SM -SHRA BR OVC015 WS020/27035KT
     FM171400 27013G25KT 6SM BR OVC025 WS020/27035KT=



000
FTUS41 KCTP 162135 AAA
TAFIPT
TAF AMD
KIPT 162135Z 1622/1718 00000KT 6SM HZ OVC012
     FM170600 25008KT 3SM BR OVC015
     FM171400 27010G20KT 6SM BR OVC025=



000
FTUS41 KCTP 162135 AAA
TAFBFD
TAF AMD
KBFD 162135Z 1622/1718 14006KT P6SM OVC003
     FM170800 26009G15KT 2SM -SHSN BR OVC002
     FM171200 26012G20KT 2SM -SHSN BR OVC008 WS020/27035KT=



000
FTUS41 KCTP 162135 AAA
TAFIPT
TAF AMD
KIPT 162135Z 1622/1718 00000KT 6SM HZ OVC012
     FM170600 25008KT 3SM BR OVC015
     FM171400 27010G20KT 6SM BR OVC025=



000
FTUS41 KCTP 162135 AAA
TAFBFD
TAF AMD
KBFD 162135Z 1622/1718 14006KT P6SM OVC003
     FM170800 26009G15KT 2SM -SHSN BR OVC002
     FM171200 26012G20KT 2SM -SHSN BR OVC008 WS020/27035KT=



000
FTUS41 KCTP 162135 AAA
TAFMDT
TAF AMD
KMDT 162135Z 1622/1718 12005KT 3SM BR OVC008
     FM170200 24006KT 6SM BR BKN025
     FM170600 29008KT P6SM SCT030
     FM171300 29012G20KT P6SM SCT030=



000
FTUS41 KCTP 162135 AAB
TAFAOO
TAF AMD
KAOO 162135Z 1622/1718 16004KT 6SM BR OVC007
     FM162300 20006KT 4SM BR BKN008 OVC015
     FM170600 25012G20KT 3SM -SHRA BR OVC015 WS020/27035KT
     FM171400 27013G25KT 6SM BR OVC025 WS020/27035KT=



000
FTUS41 KCTP 162135 AAA
TAFUNV
TAF AMD
KUNV 162135Z 1622/1718 00000KT 5SM BR OVC009
     FM170600 25010KT 3SM -SHRA BR OVC015 WS020/27035KT
     FM171400 27012G22KT 6SM BR OVC025 WS020/27035KT=



000
FTUS41 KCTP 162051 AAA
TAFAOO
TAF AMD
KAOO 162051Z 1621/1718 18006KT 6SM -SHRA BR OVC007
     FM162300 20006KT 4SM BR BKN008 OVC015
     FM170600 25012G20KT 3SM -SHRA BR OVC015 WS020/27035KT
     FM171400 27013G25KT 6SM BR OVC025 WS020/27035KT=



000
FTUS41 KCTP 162050 AAA
TAFJST
TAF AMD
KJST 162050Z 1621/1718 15008KT 4SM -SHRA BR BKN015 OVC025
     FM170600 25012G20KT 3SM -SHRA BR OVC005 WS020/27040KT
     FM171400 27016G26KT 6SM -SHRA BR OVC012 WS020/27040KT=



000
FTUS41 KCTP 162050 AAA
TAFJST
TAF AMD
KJST 162050Z 1621/1718 15008KT 4SM -SHRA BR BKN015 OVC025
     FM170600 25012G20KT 3SM -SHRA BR OVC005 WS020/27040KT
     FM171400 27016G26KT 6SM -SHRA BR OVC012 WS020/27040KT=



000
FTUS41 KCTP 161752
TAFMDT
TAF
KMDT 161752Z 1618/1718 12006KT 2SM -RA BR OVC006
     FM162000 15005KT 4SM -SHRA BR OVC008
     FM170200 24006KT 6SM BR BKN025
     FM170600 29008KT P6SM SCT030
     FM171300 29012G20KT P6SM SCT030=



000
FTUS41 KCTP 161752
TAFJST
TAF
KJST 161752Z 1618/1718 15008KT 6SM BR BKN005 OVC015
     FM161930 21008KT 4SM -SHRA BR BKN005 OVC015
     FM170600 25012G20KT 3SM -SHRA BR OVC005 WS020/27040KT
     FM171400 27016G26KT 6SM -SHRA BR OVC012 WS020/27040KT=



000
FTUS41 KCTP 161752
TAFBFD
TAF
KBFD 161752Z 1618/1718 14009KT 2SM -SHRA BR OVC004
     FM162100 23007KT 2SM -SHRA BR OVC004
     FM170800 26009G15KT 2SM -SHSN BR OVC002
     FM171200 26012G20KT 2SM -SHSN BR OVC008 WS020/27035KT=



000
FTUS41 KCTP 161752
TAFAOO
TAF
KAOO 161752Z 1618/1718 18006KT 6SM -SHRA BR OVC007
     FM162000 20006KT 4SM BR OVC015
     FM170600 25012G20KT 3SM -SHRA BR OVC015 WS020/27035KT
     FM171400 27013G25KT 6SM BR OVC025 WS020/27035KT=



000
FTUS41 KCTP 161752
TAFIPT
TAF
KIPT 161752Z 1618/1718 09007KT 4SM -RA OVC015
     FM162000 12004KT 6SM -SHRA BR OVC015
     FM170600 25008KT 3SM BR OVC015
     FM171400 27010G20KT 6SM BR OVC025=



000
FTUS41 KCTP 161752
TAFUNV
TAF
KUNV 161752Z 1618/1718 16004KT 6SM -SHRA BR OVC008
     FM170600 25010KT 3SM -SHRA BR OVC015 WS020/27035KT
     FM171400 27012G22KT 6SM BR OVC025 WS020/27035KT=



000
FTUS41 KCTP 161752
TAFBFD
TAF
KBFD 161752Z 1618/1718 14009KT 2SM -SHRA BR OVC004
     FM162100 23007KT 2SM -SHRA BR OVC004
     FM170800 26009G15KT 2SM -SHSN BR OVC002
     FM171200 26012G20KT 2SM -SHSN BR OVC008 WS020/27035KT=



000
FTUS41 KCTP 161752
TAFJST
TAF
KJST 161752Z 1618/1718 15008KT 6SM BR BKN005 OVC015
     FM161930 21008KT 4SM -SHRA BR BKN005 OVC015
     FM170600 25012G20KT 3SM -SHRA BR OVC005 WS020/27040KT
     FM171400 27016G26KT 6SM -SHRA BR OVC012 WS020/27040KT=



000
FTUS41 KCTP 161752
TAFIPT
TAF
KIPT 161752Z 1618/1718 09007KT 4SM -RA OVC015
     FM162000 12004KT 6SM -SHRA BR OVC015
     FM170600 25008KT 3SM BR OVC015
     FM171400 27010G20KT 6SM BR OVC025=



000
FTUS41 KCTP 161752
TAFMDT
TAF
KMDT 161752Z 1618/1718 12006KT 2SM -RA BR OVC006
     FM162000 15005KT 4SM -SHRA BR OVC008
     FM170200 24006KT 6SM BR BKN025
     FM170600 29008KT P6SM SCT030
     FM171300 29012G20KT P6SM SCT030=



000
FTUS41 KCTP 161752
TAFUNV
TAF
KUNV 161752Z 1618/1718 16004KT 6SM -SHRA BR OVC008
     FM170600 25010KT 3SM -SHRA BR OVC015 WS020/27035KT
     FM171400 27012G22KT 6SM BR OVC025 WS020/27035KT=



000
FTUS41 KCTP 161752
TAFAOO
TAF
KAOO 161752Z 1618/1718 18006KT 6SM -SHRA BR OVC007
     FM162000 20006KT 4SM BR OVC015
     FM170600 25012G20KT 3SM -SHRA BR OVC015 WS020/27035KT
     FM171400 27013G25KT 6SM BR OVC025 WS020/27035KT=



000
FTUS41 KCTP 161626 AAB
TAFIPT
TAF AMD
KIPT 161626Z 1616/1712 07007G14KT P6SM OVC013
     FM161700 10005KT 2SM RA BR OVC008
     FM162100 10005KT 4SM RA BR OVC015
     FM170900 26007KT P6SM BKN025=



000
FTUS41 KCTP 161626 AAB
TAFIPT
TAF AMD
KIPT 161626Z 1616/1712 07007G14KT P6SM OVC013
     FM161700 10005KT 2SM RA BR OVC008
     FM162100 10005KT 4SM RA BR OVC015
     FM170900 26007KT P6SM BKN025=



000
FTUS41 KCTP 161622 AAB
TAFUNV
TAF AMD
KUNV 161622Z 1616/1712 13006KT 1 1/2SM RA BR OVC008
     FM161900 18006KT 4SM -SHRA BR OVC015
     FM170400 25007KT 5SM -SHRA BR BKN018
     FM170800 27010G20KT P6SM BKN025=



000
FTUS41 KCTP 161622 AAB
TAFUNV
TAF AMD
KUNV 161622Z 1616/1712 13006KT 1 1/2SM RA BR OVC008
     FM161900 18006KT 4SM -SHRA BR OVC015
     FM170400 25007KT 5SM -SHRA BR BKN018
     FM170800 27010G20KT P6SM BKN025=



000
FTUS41 KCTP 161621 AAC
TAFBFD
TAF AMD
KBFD 161621Z 1616/1712 13008KT 3SM -SHRA BR OVC005
     FM170200 23007KT 2SM -SHRA BR OVC004
     FM170800 26008G16KT 2SM -SHSN BR OVC004=



000
FTUS41 KCTP 161621 AAC
TAFBFD
TAF AMD
KBFD 161621Z 1616/1712 13008KT 3SM -SHRA BR OVC005
     FM170200 23007KT 2SM -SHRA BR OVC004
     FM170800 26008G16KT 2SM -SHSN BR OVC004=



000
FTUS41 KCTP 161621 AAD
TAFAOO
TAF AMD
KAOO 161621Z 1616/1712 10004KT 2SM -SHRA BR BKN009 OVC040
     FM161800 19007KT 5SM -SHRA BR BKN018
     FM170400 26008G15KT 5SM -SHRA BR BKN018
     FM170800 27010G20KT P6SM BKN025=



000
FTUS41 KCTP 161621 AAD
TAFAOO
TAF AMD
KAOO 161621Z 1616/1712 10004KT 2SM -SHRA BR BKN009 OVC040
     FM161800 19007KT 5SM -SHRA BR BKN018
     FM170400 26008G15KT 5SM -SHRA BR BKN018
     FM170800 27010G20KT P6SM BKN025=



000
FTUS41 KCTP 161620 AAC
TAFJST
TAF AMD
KJST 161620Z 1616/1712 22006KT 1/2SM -SHRA FG BKN006 OVC030
     FM161800 22008KT 5SM -SHRA BR BKN008 OVC025
     FM170300 26008G16KT 3SM -SHRA BR BKN006 OVC012
     FM170700 27012G25KT 3SM -SHRA BR BKN006 OVC012=



000
FTUS41 KCTP 161449 AAB
TAFMDT
TAF AMD
KMDT 161449Z 1615/1712 12005KT 1 1/2SM BR OVC003
     FM161600 15007KT 3SM -RA BR OVC008
     FM170100 24006KT 5SM BR BKN025
     FM170700 27007KT P6SM SCT025=



000
FTUS41 KCTP 161449 AAB
TAFMDT
TAF AMD
KMDT 161449Z 1615/1712 12005KT 1 1/2SM BR OVC003
     FM161600 15007KT 3SM -RA BR OVC008
     FM170100 24006KT 5SM BR BKN025
     FM170700 27007KT P6SM SCT025=



000
FTUS41 KCTP 161448 AAA
TAFIPT
TAF AMD
KIPT 161448Z 1615/1712 07007KT P6SM OVC013
     FM161700 10005KT 4SM -SHRA BR OVC010
     FM170900 26007KT P6SM BKN025=



000
FTUS41 KCTP 161448 AAA
TAFIPT
TAF AMD
KIPT 161448Z 1615/1712 07007KT P6SM OVC013
     FM161700 10005KT 4SM -SHRA BR OVC010
     FM170900 26007KT P6SM BKN025=



000
FTUS41 KCTP 161447 AAA
TAFUNV
TAF AMD
KUNV 161447Z 1615/1712 VRB05KT 3SM BR OVC008
     FM161530 13006KT 2SM -SHRA BR OVC015
     FM162000 18006KT 4SM -SHRA BR BKN025
     FM170400 25007KT 5SM -SHRA BR BKN018
     FM170800 27010G20KT P6SM BKN025=



000
FTUS41 KCTP 161447 AAA
TAFUNV
TAF AMD
KUNV 161447Z 1615/1712 VRB05KT 3SM BR OVC008
     FM161530 13006KT 2SM -SHRA BR OVC015
     FM162000 18006KT 4SM -SHRA BR BKN025
     FM170400 25007KT 5SM -SHRA BR BKN018
     FM170800 27010G20KT P6SM BKN025=



000
FTUS41 KCTP 161446 AAC
TAFAOO
TAF AMD
KAOO 161446Z 1615/1712 12004KT 1SM RA BR BKN008 OVC050
     FM161630 19007KT 5SM -SHRA BR BKN018
     FM170400 26008G15KT 5SM -SHRA BR BKN018
     FM170800 27010G20KT P6SM BKN025=



000
FTUS41 KCTP 161446 AAC
TAFAOO
TAF AMD
KAOO 161446Z 1615/1712 12004KT 1SM RA BR BKN008 OVC050
     FM161630 19007KT 5SM -SHRA BR BKN018
     FM170400 26008G15KT 5SM -SHRA BR BKN018
     FM170800 27010G20KT P6SM BKN025=



000
FTUS41 KCTP 161445 AAB
TAFJST
TAF AMD
KJST 161445Z 1615/1712 17008KT 2SM RA BR BKN015 OVC030
     FM161600 22008KT 5SM -SHRA BR BKN015 OVC025
     FM170300 26008G16KT 3SM -SHRA BR BKN006 OVC012
     FM170700 27012G25KT 3SM -SHRA BR BKN006 OVC012=



000
FTUS41 KCTP 161445 AAB
TAFJST
TAF AMD
KJST 161445Z 1615/1712 17008KT 2SM RA BR BKN015 OVC030
     FM161600 22008KT 5SM -SHRA BR BKN015 OVC025
     FM170300 26008G16KT 3SM -SHRA BR BKN006 OVC012
     FM170700 27012G25KT 3SM -SHRA BR BKN006 OVC012=



000
FTUS41 KCTP 161444 AAB
TAFBFD
TAF AMD
KBFD 161444Z 1615/1712 15008KT 2SM -SHRA OVC025
     FM161600 17007KT 3SM -SHRA BR OVC008
     FM170200 23007KT 2SM -SHRA BR OVC004
     FM170800 26008G16KT 2SM -SHSN BR OVC004=



000
FTUS41 KCTP 161444 AAB
TAFBFD
TAF AMD
KBFD 161444Z 1615/1712 15008KT 2SM -SHRA OVC025
     FM161600 17007KT 3SM -SHRA BR OVC008
     FM170200 23007KT 2SM -SHRA BR OVC004
     FM170800 26008G16KT 2SM -SHSN BR OVC004=



000
FTUS41 KCTP 161309 AAA
TAFMDT
TAF AMD
KMDT 161309Z 1613/1712 12005KT 3/4SM BR OVC002
     FM161430 12005KT 1 1/2SM BR BKN002 OVC009
     FM161600 15007KT 4SM -SHRA BR OVC015
     FM170100 24006KT 5SM BR BKN025
     FM170700 27007KT P6SM SCT025=



000
FTUS41 KCTP 161309 AAA
TAFMDT
TAF AMD
KMDT 161309Z 1613/1712 12005KT 3/4SM BR OVC002
     FM161430 12005KT 1 1/2SM BR BKN002 OVC009
     FM161600 15007KT 4SM -SHRA BR OVC015
     FM170100 24006KT 5SM BR BKN025
     FM170700 27007KT P6SM SCT025=



000
FTUS41 KCTP 161308 AAB
TAFAOO
TAF AMD
KAOO 161308Z 1613/1712 12004KT 2SM -SHRA BR BKN006 OVC070
     FM161430 17006KT 4SM -SHRA BR BKN012 OVC035
     FM161800 19007KT 5SM -SHRA BR BKN025
     FM170400 26008G15KT 5SM -SHRA BR BKN018
     FM170800 27010G20KT P6SM BKN025=



000
FTUS41 KCTP 161308 AAB
TAFAOO
TAF AMD
KAOO 161308Z 1613/1712 12004KT 2SM -SHRA BR BKN006 OVC070
     FM161430 17006KT 4SM -SHRA BR BKN012 OVC035
     FM161800 19007KT 5SM -SHRA BR BKN025
     FM170400 26008G15KT 5SM -SHRA BR BKN018
     FM170800 27010G20KT P6SM BKN025=



000
FTUS41 KCTP 161307 AAA
TAFJST
TAF AMD
KJST 161307Z 1613/1712 14007KT 4SM -RA SCT025 OVC040
     FM161400 17008KT 3SM -RA BR BKN015 OVC030
     FM161800 22008KT 5SM -SHRA BR BKN015 OVC025
     FM170300 26008G16KT 3SM -SHRA BR BKN006 OVC012
     FM170700 27012G25KT 3SM -SHRA BR BKN006 OVC012=



000
FTUS41 KCTP 161305 AAA
TAFBFD
TAF AMD
KBFD 161305Z 1613/1712 15006KT 3SM -SHRA BR SCT005 BKN035
     FM161600 17007KT 3SM -SHRA BR OVC008
     FM170200 23007KT 2SM -SHRA BR OVC004
     FM170800 26008G16KT 2SM -SHSN BR OVC004=



000
FTUS41 KCTP 161305 AAA
TAFBFD
TAF AMD
KBFD 161305Z 1613/1712 15006KT 3SM -SHRA BR SCT005 BKN035
     FM161600 17007KT 3SM -SHRA BR OVC008
     FM170200 23007KT 2SM -SHRA BR OVC004
     FM170800 26008G16KT 2SM -SHSN BR OVC004=



000
FTUS41 KCTP 161157 AAA
TAFAOO
TAF AMD
KAOO 161157Z 1612/1712 VRB05KT 1SM BR BKN007 OVC070
     FM161500 17006KT 4SM -SHRA BR SCT008 OVC015
     FM161900 19007KT 5SM -SHRA BR BKN025
     FM170400 26008G15KT 5SM -SHRA BR BKN018
     FM170800 27010G20KT P6SM BKN025=



000
FTUS41 KCTP 161157 AAA
TAFAOO
TAF AMD
KAOO 161157Z 1612/1712 VRB05KT 1SM BR BKN007 OVC070
     FM161500 17006KT 4SM -SHRA BR SCT008 OVC015
     FM161900 19007KT 5SM -SHRA BR BKN025
     FM170400 26008G15KT 5SM -SHRA BR BKN018
     FM170800 27010G20KT P6SM BKN025=



000
FTUS41 KCTP 161135
TAFIPT
TAF
KIPT 161135Z 1612/1712 07007KT P6SM OVC012
     FM161600 10005KT 4SM -SHRA BR SCT008 OVC015
     FM170900 26007KT P6SM BKN025=



000
FTUS41 KCTP 161135
TAFMDT
TAF
KMDT 161135Z 1612/1712 12005KT 2SM BR BKN004 OVC009
     FM161600 15007KT 4SM -SHRA BR OVC015
     FM170100 24006KT 5SM BR BKN025
     FM170700 27007KT P6SM SCT025=



000
FTUS41 KCTP 161135
TAFBFD
TAF
KBFD 161135Z 1612/1712 15009KT 3SM -SHRA BR OVC004
     FM161400 17007KT 3SM -SHRA BR OVC008
     FM170200 23007KT 2SM -SHRA BR OVC004
     FM170800 26008G16KT 2SM -SHSN BR OVC004=



000
FTUS41 KCTP 161135
TAFMDT
TAF
KMDT 161135Z 1612/1712 12005KT 2SM BR BKN004 OVC009
     FM161600 15007KT 4SM -SHRA BR OVC015
     FM170100 24006KT 5SM BR BKN025
     FM170700 27007KT P6SM SCT025=



000
FTUS41 KCTP 161135
TAFJST
TAF
KJST 161135Z 1612/1712 18005KT P6SM VCSH SCT035 OVC070
     FM161400 17008KT 3SM -SHRA BR BKN012 OVC030
     FM161800 22008KT 5SM -SHRA BR BKN015 OVC025
     FM170300 26008G16KT 3SM -SHRA BR BKN006 OVC012
     FM170700 27012G25KT 3SM -SHRA BR BKN006 OVC012=



000
FTUS41 KCTP 161135
TAFAOO
TAF
KAOO 161135Z 1612/1712 VRB05KT 1SM BR SCT009 OVC070
     FM161500 17006KT 4SM -SHRA BR SCT008 OVC015
     FM161900 19007KT 5SM -SHRA BR BKN025
     FM170400 26008G15KT 5SM -SHRA BR BKN018
     FM170800 27010G20KT P6SM BKN025=



000
FTUS41 KCTP 161135
TAFUNV
TAF
KUNV 161135Z 1612/1712 VRB05KT 5SM BR BKN010
     FM161500 17006KT 3SM -SHRA BR SCT008 OVC015
     FM162000 18006KT 4SM -SHRA BR BKN025
     FM170400 25007KT 5SM -SHRA BR BKN018
     FM170800 27010G20KT P6SM BKN025=



000
FTUS41 KCTP 161135
TAFIPT
TAF
KIPT 161135Z 1612/1712 07007KT P6SM OVC012
     FM161600 10005KT 4SM -SHRA BR SCT008 OVC015
     FM170900 26007KT P6SM BKN025=



000
FTUS41 KCTP 161025 AAD
TAFAOO
TAF AMD
KAOO 161025Z 1610/1706 VRB03KT 1/4SM FZFG VV007
     FM161500 17006KT 4SM -SHRA BR SCT008 OVC015
     FM161900 19007KT 5SM -SHRA BR BKN025
     FM170400 26008G15KT 5SM -SHRA BR BKN018=



000
FTUS41 KCTP 161025 AAD
TAFAOO
TAF AMD
KAOO 161025Z 1610/1706 VRB03KT 1/4SM FZFG VV007
     FM161500 17006KT 4SM -SHRA BR SCT008 OVC015
     FM161900 19007KT 5SM -SHRA BR BKN025
     FM170400 26008G15KT 5SM -SHRA BR BKN018=



000
FTUS41 KCTP 160929 AAA
TAFJST
TAF AMD
KJST 160929Z 1609/1706 18005KT P6SM VCSH BKN250
     FM161400 17008KT 3SM -SHRA BR BKN012 OVC030
     FM161800 22008KT 5SM -SHRA BR BKN015 OVC025
     FM170300 26008G16KT 3SM -SHRA BR BKN006 OVC012=



000
FTUS41 KCTP 160929 AAB
TAFBFD
TAF AMD
KBFD 160929Z 1609/1706 15009KT 3SM -SHRA BR OVC002
     FM161400 17007KT 3SM -SHRA BR OVC008
     FM170200 23007KT 2SM -SHRA BR OVC004=



000
FTUS41 KCTP 160929 AAB
TAFIPT
TAF AMD
KIPT 160929Z 1609/1706 07006KT P6SM OVC012
     FM161600 10005KT 4SM -SHRA BR SCT008 OVC015=



000
FTUS41 KCTP 160929 AAC
TAFAOO
TAF AMD
KAOO 160929Z 1609/1706 VRB03KT 1/2SM FZFG VV009
     FM161500 17006KT 4SM -SHRA BR SCT008 OVC015
     FM161900 19007KT 5SM -SHRA BR BKN025
     FM170400 26008G15KT 5SM -SHRA BR BKN018=



000
FTUS41 KCTP 160929 AAC
TAFAOO
TAF AMD
KAOO 160929Z 1609/1706 VRB03KT 1/2SM FZFG VV009
     FM161500 17006KT 4SM -SHRA BR SCT008 OVC015
     FM161900 19007KT 5SM -SHRA BR BKN025
     FM170400 26008G15KT 5SM -SHRA BR BKN018=



000
FTUS41 KCTP 160929 AAB
TAFUNV
TAF AMD
KUNV 160929Z 1609/1706 VRB02KT 5SM BR BKN010
     FM161500 17006KT 3SM -SHRA BR SCT008 OVC015
     FM162000 18006KT 4SM -SHRA BR BKN025
     FM170400 25007KT 5SM -SHRA BR BKN018=



000
FTUS41 KCTP 160929 AAB
TAFUNV
TAF AMD
KUNV 160929Z 1609/1706 VRB02KT 5SM BR BKN010
     FM161500 17006KT 3SM -SHRA BR SCT008 OVC015
     FM162000 18006KT 4SM -SHRA BR BKN025
     FM170400 25007KT 5SM -SHRA BR BKN018=



000
FTUS41 KCTP 160929 AAA
TAFJST
TAF AMD
KJST 160929Z 1609/1706 18005KT P6SM VCSH BKN250
     FM161400 17008KT 3SM -SHRA BR BKN012 OVC030
     FM161800 22008KT 5SM -SHRA BR BKN015 OVC025
     FM170300 26008G16KT 3SM -SHRA BR BKN006 OVC012=



000
FTUS41 KCTP 160929 AAB
TAFMDT
TAF AMD
KMDT 160929Z 1609/1706 12005KT 5SM BR BKN009 OVC015
     FM161600 15007KT 4SM -SHRA BR OVC015
     FM170100 24006KT 5SM BR BKN025=



000
FTUS41 KCTP 160929 AAB
TAFBFD
TAF AMD
KBFD 160929Z 1609/1706 15009KT 3SM -SHRA BR OVC002
     FM161400 17007KT 3SM -SHRA BR OVC008
     FM170200 23007KT 2SM -SHRA BR OVC004=



000
FTUS41 KCTP 160929 AAB
TAFIPT
TAF AMD
KIPT 160929Z 1609/1706 07006KT P6SM OVC012
     FM161600 10005KT 4SM -SHRA BR SCT008 OVC015=



000
FTUS41 KCTP 160929 AAB
TAFMDT
TAF AMD
KMDT 160929Z 1609/1706 12005KT 5SM BR BKN009 OVC015
     FM161600 15007KT 4SM -SHRA BR OVC015
     FM170100 24006KT 5SM BR BKN025=



000
FTUS41 KCTP 160819 AAA
TAFMDT
TAF AMD
KMDT 160819Z 1608/1706 12005KT 5SM BR BKN015
     FM161600 15007KT 4SM -SHRA BR OVC015
     FM170100 24006KT 5SM BR BKN025=



000
FTUS41 KCTP 160817 AAA
TAFIPT
TAF AMD
KIPT 160817Z 1608/1706 07006KT P6SM OVC014
     FM161600 10005KT 4SM -SHRA BR SCT008 OVC015=



000
FTUS41 KCTP 160817 AAA
TAFIPT
TAF AMD
KIPT 160817Z 1608/1706 07006KT P6SM OVC014
     FM161600 10005KT 4SM -SHRA BR SCT008 OVC015=



000
FTUS41 KCTP 160815 AAA
TAFUNV
TAF AMD
KUNV 160815Z 1608/1706 VRB02KT P6SM BKN010
     FM161500 17006KT 3SM -SHRA BR SCT008 OVC015
     FM162000 18006KT 4SM -SHRA BR BKN025
     FM170400 25007KT 5SM -SHRA BR BKN018=



000
FTUS41 KCTP 160814 AAB
TAFAOO
TAF AMD
KAOO 160814Z 1608/1706 VRB03KT 1/2SM FZFG VV009
     FM161500 17006KT 4SM -SHRA BR SCT008 OVC015
     FM161900 19007KT 5SM -SHRA BR BKN025
     FM170400 26008G15KT 5SM -SHRA BR BKN018=



000
FTUS41 KCTP 160812 AAA
TAFBFD
TAF AMD
KBFD 160812Z 1608/1706 15007KT 2SM BR OVC002
     FM161400 17007KT 3SM -SHRA BR OVC008
     FM170200 23007KT 2SM -SHRA BR OVC004=



000
FTUS41 KCTP 160812 AAA
TAFBFD
TAF AMD
KBFD 160812Z 1608/1706 15007KT 2SM BR OVC002
     FM161400 17007KT 3SM -SHRA BR OVC008
     FM170200 23007KT 2SM -SHRA BR OVC004=



000
FTUS41 KCTP 160642 AAA
TAFAOO
TAF AMD
KAOO 160642Z 1607/1706 VRB03KT 1SM BR VCFG SCT250
     FM161500 17006KT 4SM -SHRA BR SCT008 OVC015
     FM161900 19007KT 5SM -SHRA BR BKN025
     FM170400 26008G15KT 5SM -SHRA BR BKN018=



000
FTUS41 KCTP 160642 AAA
TAFAOO
TAF AMD
KAOO 160642Z 1607/1706 VRB03KT 1SM BR VCFG SCT250
     FM161500 17006KT 4SM -SHRA BR SCT008 OVC015
     FM161900 19007KT 5SM -SHRA BR BKN025
     FM170400 26008G15KT 5SM -SHRA BR BKN018=



000
FTUS41 KCTP 160550
TAFBFD
TAF
KBFD 160550Z 1606/1706 14005KT 1/4SM FG OVC002
     FM161400 17007KT 3SM -SHRA BR OVC008
     FM170200 23007KT 2SM -SHRA BR OVC004=



000
FTUS41 KCTP 160550
TAFIPT
TAF
KIPT 160550Z 1606/1706 07006KT P6SM OVC014
     FM160800 VRB02KT 3SM BR VCFG SCT015
     FM161600 10005KT 4SM -SHRA BR SCT008 OVC015=



000
FTUS41 KCTP 160550
TAFJST
TAF
KJST 160550Z 1606/1706 17005KT P6SM BKN250
     FM161400 17008KT 3SM -SHRA BR BKN012 OVC030
     FM161800 22008KT 5SM -SHRA BR BKN015 OVC025
     FM170300 26008G16KT 3SM -SHRA BR BKN006 OVC012=



000
FTUS41 KCTP 160550
TAFMDT
TAF
KMDT 160550Z 1606/1706 10005KT 5SM BR VCFG SCT015
     FM161600 15007KT 4SM -SHRA BR OVC015
     FM170100 24006KT 5SM BR BKN025=



000
FTUS41 KCTP 160550
TAFUNV
TAF
KUNV 160550Z 1606/1706 VRB02KT 5SM BR VCFG BKN010
     FM161500 17006KT 3SM -SHRA BR SCT008 OVC015
     FM162000 18006KT 4SM -SHRA BR BKN025
     FM170400 25007KT 5SM -SHRA BR BKN018=



000
FTUS41 KCTP 160550
TAFAOO
TAF
KAOO 160550Z 1606/1706 VRB03KT 5SM BR SCT250
     FM161500 17006KT 4SM -SHRA BR SCT008 OVC015
     FM161900 19007KT 5SM -SHRA BR BKN025
     FM170400 26008G15KT 5SM -SHRA BR BKN018=



000
FTUS41 KCTP 160550
TAFMDT
TAF
KMDT 160550Z 1606/1706 10005KT 5SM BR VCFG SCT015
     FM161600 15007KT 4SM -SHRA BR OVC015
     FM170100 24006KT 5SM BR BKN025=



000
FTUS41 KCTP 160550
TAFIPT
TAF
KIPT 160550Z 1606/1706 07006KT P6SM OVC014
     FM160800 VRB02KT 3SM BR VCFG SCT015
     FM161600 10005KT 4SM -SHRA BR SCT008 OVC015=



000
FTUS41 KCTP 160550
TAFJST
TAF
KJST 160550Z 1606/1706 17005KT P6SM BKN250
     FM161400 17008KT 3SM -SHRA BR BKN012 OVC030
     FM161800 22008KT 5SM -SHRA BR BKN015 OVC025
     FM170300 26008G16KT 3SM -SHRA BR BKN006 OVC012=



000
FTUS41 KCTP 160550
TAFBFD
TAF
KBFD 160550Z 1606/1706 14005KT 1/4SM FG OVC002
     FM161400 17007KT 3SM -SHRA BR OVC008
     FM170200 23007KT 2SM -SHRA BR OVC004=



000
FTUS41 KCTP 160550
TAFUNV
TAF
KUNV 160550Z 1606/1706 VRB02KT 5SM BR VCFG BKN010
     FM161500 17006KT 3SM -SHRA BR SCT008 OVC015
     FM162000 18006KT 4SM -SHRA BR BKN025
     FM170400 25007KT 5SM -SHRA BR BKN018=



000
FTUS41 KCTP 160550
TAFAOO
TAF
KAOO 160550Z 1606/1706 VRB03KT 5SM BR SCT250
     FM161500 17006KT 4SM -SHRA BR SCT008 OVC015
     FM161900 19007KT 5SM -SHRA BR BKN025
     FM170400 26008G15KT 5SM -SHRA BR BKN018=



000
FTUS41 KCTP 160347 AAA
TAFMDT
TAF AMD
KMDT 160347Z 1604/1624 VRB02KT P6SM SCT250
     FM160500 VRB02KT 3SM BR VCFG SCT250
     FM161600 15005KT 4SM -SHRA BR OVC015=



000
FTUS41 KCTP 160347 AAA
TAFMDT
TAF AMD
KMDT 160347Z 1604/1624 VRB02KT P6SM SCT250
     FM160500 VRB02KT 3SM BR VCFG SCT250
     FM161600 15005KT 4SM -SHRA BR OVC015=



000
FTUS41 KCTP 160347 AAA
TAFMDT
TAF AMD
KMDT 160347Z 1604/1624 VRB02KT P6SM SCT250
     FM160500 VRB02KT 3SM BR VCFG SCT250
     FM161600 15005KT 4SM -SHRA BR OVC015=



000
FTUS41 KCTP 160347 AAA
TAFMDT
TAF AMD
KMDT 160347Z 1604/1624 VRB02KT P6SM SCT250
     FM160500 VRB02KT 3SM BR VCFG SCT250
     FM161600 15005KT 4SM -SHRA BR OVC015=



000
FTUS41 KCTP 160345 AAA
TAFIPT
TAF AMD
KIPT 160345Z 1604/1624 VRB02KT P6SM OVC015
     FM160800 VRB02KT 3SM BR VCFG SCT015
     FM161600 10005KT 4SM -SHRA BR SCT008 OVC015=



000
FTUS41 KCTP 160345 AAA
TAFIPT
TAF AMD
KIPT 160345Z 1604/1624 VRB02KT P6SM OVC015
     FM160800 VRB02KT 3SM BR VCFG SCT015
     FM161600 10005KT 4SM -SHRA BR SCT008 OVC015=



000
FTUS41 KCTP 160345 AAA
TAFIPT
TAF AMD
KIPT 160345Z 1604/1624 VRB02KT P6SM OVC015
     FM160800 VRB02KT 3SM BR VCFG SCT015
     FM161600 10005KT 4SM -SHRA BR SCT008 OVC015=



000
FTUS41 KCTP 160345 AAA
TAFIPT
TAF AMD
KIPT 160345Z 1604/1624 VRB02KT P6SM OVC015
     FM160800 VRB02KT 3SM BR VCFG SCT015
     FM161600 10005KT 4SM -SHRA BR SCT008 OVC015=



000
FTUS41 KCTP 160343 AAA
TAFUNV
TAF AMD
KUNV 160343Z 1604/1624 VRB02KT P6SM SCT015
     FM160430 VRB02KT 4SM BR VCFG SCT250
     FM161500 16003KT 3SM -RA BR BKN008 OVC015
     FM161900 18003KT 4SM -SHRA BR SCT008 OVC015=



000
FTUS41 KCTP 160343 AAA
TAFUNV
TAF AMD
KUNV 160343Z 1604/1624 VRB02KT P6SM SCT015
     FM160430 VRB02KT 4SM BR VCFG SCT250
     FM161500 16003KT 3SM -RA BR BKN008 OVC015
     FM161900 18003KT 4SM -SHRA BR SCT008 OVC015=



000
FTUS41 KCTP 160343 AAA
TAFUNV
TAF AMD
KUNV 160343Z 1604/1624 VRB02KT P6SM SCT015
     FM160430 VRB02KT 4SM BR VCFG SCT250
     FM161500 16003KT 3SM -RA BR BKN008 OVC015
     FM161900 18003KT 4SM -SHRA BR SCT008 OVC015=



000
FTUS41 KCTP 160343 AAA
TAFUNV
TAF AMD
KUNV 160343Z 1604/1624 VRB02KT P6SM SCT015
     FM160430 VRB02KT 4SM BR VCFG SCT250
     FM161500 16003KT 3SM -RA BR BKN008 OVC015
     FM161900 18003KT 4SM -SHRA BR SCT008 OVC015=



000
FTUS41 KCTP 160342 AAA
TAFAOO
TAF AMD
KAOO 160342Z 1604/1624 VRB03KT 4SM BR SCT250
     FM161400 17006KT 4SM -SHRA BR SCT008 OVC015=



000
FTUS41 KCTP 160342 AAA
TAFAOO
TAF AMD
KAOO 160342Z 1604/1624 VRB03KT 4SM BR SCT250
     FM161400 17006KT 4SM -SHRA BR SCT008 OVC015=



000
FTUS41 KCTP 160342 AAA
TAFAOO
TAF AMD
KAOO 160342Z 1604/1624 VRB03KT 4SM BR SCT250
     FM161400 17006KT 4SM -SHRA BR SCT008 OVC015=



000
FTUS41 KCTP 160335 AAA
TAFJST
TAF AMD
KJST 160335Z 1604/1624 16005KT P6SM BKN250
     FM161400 17008KT 3SM -RA BR BKN012 OVC030
     FM161800 22008KT 5SM -SHRA BKN015 OVC025=



000
FTUS41 KCTP 160335 AAA
TAFJST
TAF AMD
KJST 160335Z 1604/1624 16005KT P6SM BKN250
     FM161400 17008KT 3SM -RA BR BKN012 OVC030
     FM161800 22008KT 5SM -SHRA BKN015 OVC025=



000
FTUS41 KCTP 160335 AAA
TAFJST
TAF AMD
KJST 160335Z 1604/1624 16005KT P6SM BKN250
     FM161400 17008KT 3SM -RA BR BKN012 OVC030
     FM161800 22008KT 5SM -SHRA BKN015 OVC025=



000
FTUS41 KCTP 160335 AAA
TAFJST
TAF AMD
KJST 160335Z 1604/1624 16005KT P6SM BKN250
     FM161400 17008KT 3SM -RA BR BKN012 OVC030
     FM161800 22008KT 5SM -SHRA BKN015 OVC025=



000
FTUS41 KCTP 160332 AAB
TAFBFD
TAF AMD
KBFD 160332Z 1604/1624 13004KT 1/4SM FG VV002
     FM160400 13002KT 1SM BR OVC003
     FM161400 15006KT 3SM -SHRA BR OVC008=



000
FTUS41 KCTP 160332 AAB
TAFBFD
TAF AMD
KBFD 160332Z 1604/1624 13004KT 1/4SM FG VV002
     FM160400 13002KT 1SM BR OVC003
     FM161400 15006KT 3SM -SHRA BR OVC008=



000
FTUS41 KCTP 160332 AAB
TAFBFD
TAF AMD
KBFD 160332Z 1604/1624 13004KT 1/4SM FG VV002
     FM160400 13002KT 1SM BR OVC003
     FM161400 15006KT 3SM -SHRA BR OVC008=



000
FTUS41 KCTP 160332 AAB
TAFBFD
TAF AMD
KBFD 160332Z 1604/1624 13004KT 1/4SM FG VV002
     FM160400 13002KT 1SM BR OVC003
     FM161400 15006KT 3SM -SHRA BR OVC008=



000
FTUS41 KCTP 160100 AAA
TAFBFD
TAF AMD
KBFD 160100Z 1601/1624 13004KT 1/4SM FG VV002
     FM160200 13002KT 2SM BR OVC003
     FM161400 15006KT 3SM -SHRA BR OVC008=



000
FTUS41 KCTP 160100 AAA
TAFBFD
TAF AMD
KBFD 160100Z 1601/1624 13004KT 1/4SM FG VV002
     FM160200 13002KT 2SM BR OVC003
     FM161400 15006KT 3SM -SHRA BR OVC008=



000
FTUS41 KCTP 152332
TAFMDT
TAF
KMDT 152332Z 1600/1624 VRB02KT P6SM SCT250
     FM160400 VRB02KT 3SM BR VCFG SCT250
     FM161600 15005KT 4SM -SHRA BR OVC015=



000
FTUS41 KCTP 152332
TAFAOO
TAF
KAOO 152332Z 1600/1624 VRB03KT 4SM BR SCT250
     FM161400 17006KT 4SM -SHRA BR SCT008 OVC015=



000
FTUS41 KCTP 152332
TAFUNV
TAF
KUNV 152332Z 1600/1624 00000KT P6SM OVC015
     FM160100 VRB02KT P6SM SCT015
     FM160200 VRB02KT 4SM BR SCT250
     FM161500 16003KT 3SM -RA BR BKN008 OVC015
     FM161900 18003KT 4SM -SHRA BR SCT008 OVC015=



000
FTUS41 KCTP 152332
TAFJST
TAF
KJST 152332Z 1600/1624 10003KT 6SM BR SCT250
      TEMPO 1600/1602 5SM BR
     FM160200 16005KT P6SM BKN250
     FM161400 17008KT 3SM -RA BR BKN012 OVC030
     FM161800 22008KT 5SM -SHRA BKN015 OVC025=



000
FTUS41 KCTP 152332
TAFMDT
TAF
KMDT 152332Z 1600/1624 VRB02KT P6SM SCT250
     FM160400 VRB02KT 3SM BR VCFG SCT250
     FM161600 15005KT 4SM -SHRA BR OVC015=



000
FTUS41 KCTP 152332
TAFIPT
TAF
KIPT 152332Z 1600/1624 VRB02KT P6SM OVC015
     FM160400 VRB02KT 4SM BR SCT015
     FM160800 VRB02KT 1SM BR VCFG SCT250
     FM161600 10005KT 4SM -SHRA BR SCT008 OVC015=



000
FTUS41 KCTP 152332
TAFJST
TAF
KJST 152332Z 1600/1624 10003KT 6SM BR SCT250
      TEMPO 1600/1602 5SM BR
     FM160200 16005KT P6SM BKN250
     FM161400 17008KT 3SM -RA BR BKN012 OVC030
     FM161800 22008KT 5SM -SHRA BKN015 OVC025=



000
FTUS41 KCTP 152332
TAFUNV
TAF
KUNV 152332Z 1600/1624 00000KT P6SM OVC015
     FM160100 VRB02KT P6SM SCT015
     FM160200 VRB02KT 4SM BR SCT250
     FM161500 16003KT 3SM -RA BR BKN008 OVC015
     FM161900 18003KT 4SM -SHRA BR SCT008 OVC015=



000
FTUS41 KCTP 152332
TAFBFD
TAF
KBFD 152332Z 1600/1624 13002KT 2SM BR OVC003
     FM161400 15006KT 3SM -SHRA BR OVC008=



000
FTUS41 KCTP 152222 AAA
TAFMDT
TAF AMD
KMDT 152222Z 1522/1618 VRB02KT P6SM SCT250
     FM160500 VRB02KT 4SM BR VCFG SCT250
     FM161600 15005KT 4SM -SHRA BR OVC015=



000
FTUS41 KCTP 152222 AAA
TAFMDT
TAF AMD
KMDT 152222Z 1522/1618 VRB02KT P6SM SCT250
     FM160500 VRB02KT 4SM BR VCFG SCT250
     FM161600 15005KT 4SM -SHRA BR OVC015=



000
FTUS41 KCTP 152219 AAA
TAFIPT
TAF AMD
KIPT 152219Z 1522/1618 VRB02KT P6SM OVC015
     FM160400 VRB02KT 4SM BR SCT015
     FM160800 VRB02KT 1SM BR SCT005
     FM161500 10005KT 4SM -SHRA BR BKN008 OVC015=



000
FTUS41 KCTP 152219 AAA
TAFIPT
TAF AMD
KIPT 152219Z 1522/1618 VRB02KT P6SM OVC015
     FM160400 VRB02KT 4SM BR SCT015
     FM160800 VRB02KT 1SM BR SCT005
     FM161500 10005KT 4SM -SHRA BR BKN008 OVC015=



000
FTUS41 KCTP 152206 AAA
TAFUNV
TAF AMD
KUNV 152206Z 1522/1618 VRB02KT P6SM OVC015
     FM160000 VRB02KT P6SM SCT015
     FM160100 VRB02KT 4SM BR SCT250
     FM161400 17006KT 4SM -SHRA BR BKN018 OVC035=



000
FTUS41 KCTP 152206 AAA
TAFUNV
TAF AMD
KUNV 152206Z 1522/1618 VRB02KT P6SM OVC015
     FM160000 VRB02KT P6SM SCT015
     FM160100 VRB02KT 4SM BR SCT250
     FM161400 17006KT 4SM -SHRA BR BKN018 OVC035=



000
FTUS41 KCTP 152201 AAB
TAFAOO
TAF AMD
KAOO 152201Z 1522/1618 08003KT 6SM BR SCT250
     FM152300 VRB03KT 4SM BR SCT250
     FM161400 17006KT 4SM -SHRA BR BKN018 OVC035=



000
FTUS41 KCTP 152201 AAB
TAFAOO
TAF AMD
KAOO 152201Z 1522/1618 08003KT 6SM BR SCT250
     FM152300 VRB03KT 4SM BR SCT250
     FM161400 17006KT 4SM -SHRA BR BKN018 OVC035=



000
FTUS41 KCTP 152201 AAB
TAFAOO
TAF AMD
KAOO 152201Z 1522/1618 08003KT 6SM BR SCT250
     FM152300 VRB03KT 4SM BR SCT250
     FM161400 17006KT 4SM -SHRA BR BKN018 OVC035=



000
FTUS41 KCTP 152201 AAB
TAFAOO
TAF AMD
KAOO 152201Z 1522/1618 08003KT 6SM BR SCT250
     FM152300 VRB03KT 4SM BR SCT250
     FM161400 17006KT 4SM -SHRA BR BKN018 OVC035=



000
FTUS41 KCTP 152155 AAC
TAFJST
TAF AMD
KJST 152155Z 1522/1618 09003KT 6SM BR SCT015
     FM152230 11003KT 4SM BR FEW015 SCT250
     FM160300 16005KT P6SM BKN250
     FM161300 17008KT 4SM -SHRA BR BKN012 OVC030=



000
FTUS41 KCTP 152155 AAC
TAFJST
TAF AMD
KJST 152155Z 1522/1618 09003KT 6SM BR SCT015
     FM152230 11003KT 4SM BR FEW015 SCT250
     FM160300 16005KT P6SM BKN250
     FM161300 17008KT 4SM -SHRA BR BKN012 OVC030=



000
FTUS41 KCTP 152155 AAC
TAFJST
TAF AMD
KJST 152155Z 1522/1618 09003KT 6SM BR SCT015
     FM152230 11003KT 4SM BR FEW015 SCT250
     FM160300 16005KT P6SM BKN250
     FM161300 17008KT 4SM -SHRA BR BKN012 OVC030=



000
FTUS41 KCTP 152155 AAC
TAFJST
TAF AMD
KJST 152155Z 1522/1618 09003KT 6SM BR SCT015
     FM152230 11003KT 4SM BR FEW015 SCT250
     FM160300 16005KT P6SM BKN250
     FM161300 17008KT 4SM -SHRA BR BKN012 OVC030=



000
FTUS41 KCTP 152146 AAB
TAFBFD
TAF AMD
KBFD 152146Z 1522/1618 13002KT 5SM BR OVC003
     FM161300 15006KT 3SM -SHRA BR OVC005=



000
FTUS41 KCTP 152146 AAB
TAFBFD
TAF AMD
KBFD 152146Z 1522/1618 13002KT 5SM BR OVC003
     FM161300 15006KT 3SM -SHRA BR OVC005=



000
FTUS41 KCTP 152146 AAB
TAFBFD
TAF AMD
KBFD 152146Z 1522/1618 13002KT 5SM BR OVC003
     FM161300 15006KT 3SM -SHRA BR OVC005=



000
FTUS41 KCTP 152146 AAB
TAFBFD
TAF AMD
KBFD 152146Z 1522/1618 13002KT 5SM BR OVC003
     FM161300 15006KT 3SM -SHRA BR OVC005=



000
FTUS41 KCTP 152115 AAB
TAFJST
TAF AMD
KJST 152115Z 1521/1618 32005KT P6SM OVC010
     FM152200 VRB05KT P6SM BKN012 BKN250
     FM160400 16004KT 6SM BR OVC004
     FM161200 17008KT 4SM -SHRA BR BKN012 OVC030=



000
FTUS41 KCTP 152115 AAB
TAFJST
TAF AMD
KJST 152115Z 1521/1618 32005KT P6SM OVC010
     FM152200 VRB05KT P6SM BKN012 BKN250
     FM160400 16004KT 6SM BR OVC004
     FM161200 17008KT 4SM -SHRA BR BKN012 OVC030=



000
FTUS41 KCTP 152115 AAB
TAFJST
TAF AMD
KJST 152115Z 1521/1618 32005KT P6SM OVC010
     FM152200 VRB05KT P6SM BKN012 BKN250
     FM160400 16004KT 6SM BR OVC004
     FM161200 17008KT 4SM -SHRA BR BKN012 OVC030=



000
FTUS41 KCTP 152115 AAB
TAFJST
TAF AMD
KJST 152115Z 1521/1618 32005KT P6SM OVC010
     FM152200 VRB05KT P6SM BKN012 BKN250
     FM160400 16004KT 6SM BR OVC004
     FM161200 17008KT 4SM -SHRA BR BKN012 OVC030=



000
FTUS41 KCTP 152020 AAA
TAFJST
TAF AMD
KJST 152020Z 1520/1618 32005KT P6SM OVC009
     FM152200 VRB05KT P6SM BKN012
     FM160400 16004KT 6SM BR OVC004
     FM161200 17008KT 4SM -SHRA BR BKN012 OVC030=



000
FTUS41 KCTP 152020 AAA
TAFJST
TAF AMD
KJST 152020Z 1520/1618 32005KT P6SM OVC009
     FM152200 VRB05KT P6SM BKN012
     FM160400 16004KT 6SM BR OVC004
     FM161200 17008KT 4SM -SHRA BR BKN012 OVC030=



000
FTUS41 KCTP 152020 AAA
TAFAOO
TAF AMD
KAOO 152020Z 1520/1618 30006KT P6SM OVC017
     FM152100 VRB03KT P6SM SCT022
     FM160400 16004KT 5SM BR OVC018
     FM161400 17006KT 4SM -SHRA BR BKN018 OVC035=



000
FTUS41 KCTP 152019 AAA
TAFBFD
TAF AMD
KBFD 152019Z 1520/1618 31004KT 6SM BR OVC003
     FM152200 16003KT 6SM BR OVC006
     FM160400 14004KT 4SM BR OVC004
     FM161200 15006KT 3SM -SHRA BR BKN012 OVC030=



000
FTUS41 KCTP 152019 AAA
TAFBFD
TAF AMD
KBFD 152019Z 1520/1618 31004KT 6SM BR OVC003
     FM152200 16003KT 6SM BR OVC006
     FM160400 14004KT 4SM BR OVC004
     FM161200 15006KT 3SM -SHRA BR BKN012 OVC030=



000
FTUS41 KCTP 151753
TAFIPT
TAF
KIPT 151753Z 1518/1618 VRB02KT P6SM OVC015
     FM152130 VRB03KT P6SM BKN020
     FM160400 16004KT 6SM BR OVC015
     FM161600 17006KT 4SM -SHRA BR BKN018 OVC035=



000
FTUS41 KCTP 151753
TAFBFD
TAF
KBFD 151753Z 1518/1618 31004KT 1 1/2SM BR OVC002
     FM151900 16003KT 3SM BR OVC006
     FM160400 14004KT 4SM BR OVC004
     FM161200 15006KT 3SM -SHRA BR BKN012 OVC030=



000
FTUS41 KCTP 151753
TAFUNV
TAF
KUNV 151753Z 1518/1618 30006KT P6SM OVC015
     FM152230 VRB03KT P6SM BKN020
     FM160400 16004KT 5SM BR OVC010
     FM161400 17006KT 4SM -SHRA BR BKN018 OVC035=



000
FTUS41 KCTP 151753
TAFAOO
TAF
KAOO 151753Z 1518/1618 30006KT P6SM OVC015
     FM152100 VRB03KT P6SM BKN022
     FM160400 16004KT 5SM BR OVC004
     FM161400 17006KT 4SM -SHRA BR BKN018 OVC035=



000
FTUS41 KCTP 151753
TAFMDT
TAF
KMDT 151753Z 1518/1618 34007KT P6SM OVC020
     FM152000 VRB03KT P6SM SCT025
     FM160400 16004KT 6SM BR OVC025
     FM161700 17006KT 4SM -SHRA BR BKN025 OVC045=



000
FTUS41 KCTP 151753
TAFJST
TAF
KJST 151753Z 1518/1618 32005KT 6SM BR OVC006
     FM152000 VRB05KT P6SM OVC012
     FM160400 16004KT 2SM BR OVC004
     FM161200 17008KT 4SM -SHRA BR BKN012 OVC030=



000
FTUS41 KCTP 151753
TAFUNV
TAF
KUNV 151753Z 1518/1618 30006KT P6SM OVC015
     FM152230 VRB03KT P6SM BKN020
     FM160400 16004KT 5SM BR OVC010
     FM161400 17006KT 4SM -SHRA BR BKN018 OVC035=



000
FTUS41 KCTP 151753
TAFAOO
TAF
KAOO 151753Z 1518/1618 30006KT P6SM OVC015
     FM152100 VRB03KT P6SM BKN022
     FM160400 16004KT 5SM BR OVC004
     FM161400 17006KT 4SM -SHRA BR BKN018 OVC035=



000
FTUS41 KCTP 151753
TAFIPT
TAF
KIPT 151753Z 1518/1618 VRB02KT P6SM OVC015
     FM152130 VRB03KT P6SM BKN020
     FM160400 16004KT 6SM BR OVC015
     FM161600 17006KT 4SM -SHRA BR BKN018 OVC035=



000
FTUS41 KCTP 151753
TAFBFD
TAF
KBFD 151753Z 1518/1618 31004KT 1 1/2SM BR OVC002
     FM151900 16003KT 3SM BR OVC006
     FM160400 14004KT 4SM BR OVC004
     FM161200 15006KT 3SM -SHRA BR BKN012 OVC030=



000
FTUS41 KCTP 151753
TAFMDT
TAF
KMDT 151753Z 1518/1618 34007KT P6SM OVC020
     FM152000 VRB03KT P6SM SCT025
     FM160400 16004KT 6SM BR OVC025
     FM161700 17006KT 4SM -SHRA BR BKN025 OVC045=



000
FTUS41 KCTP 151753
TAFJST
TAF
KJST 151753Z 1518/1618 32005KT 6SM BR OVC006
     FM152000 VRB05KT P6SM OVC012
     FM160400 16004KT 2SM BR OVC004
     FM161200 17008KT 4SM -SHRA BR BKN012 OVC030=



000
FTUS41 KCTP 151517 AAB
TAFBFD
TAF AMD
KBFD 151517Z 1515/1612 31008KT 1SM BR OVC002
     FM151700 16006KT 5SM BR OVC006
     FM160900 17007KT 5SM -SHRA BR BKN006 OVC030=



000
FTUS41 KCTP 151517 AAA
TAFUNV
TAF AMD
KUNV 151517Z 1515/1612 32003KT P6SM OVC015
     FM152100 17006KT P6SM OVC020
     FM161100 17007KT 5SM -SHRA BR OVC018=



000
FTUS41 KCTP 151517 AAA
TAFAOO
TAF AMD
KAOO 151517Z 1515/1612 30006KT P6SM OVC015
     FM152100 17006KT P6SM BKN020
     FM161100 17007KT 5SM -SHRA BR OVC018=



000
FTUS41 KCTP 151517 AAA
TAFIPT
TAF AMD
KIPT 151517Z 1515/1612 30007KT P6SM OVC015
     FM151800 29007KT P6SM OVC020
     FM152300 VRB05KT P6SM BKN025=



000
FTUS41 KCTP 151517 AAB
TAFBFD
TAF AMD
KBFD 151517Z 1515/1612 31008KT 1SM BR OVC002
     FM151700 16006KT 5SM BR OVC006
     FM160900 17007KT 5SM -SHRA BR BKN006 OVC030=



000
FTUS41 KCTP 151517 AAA
TAFAOO
TAF AMD
KAOO 151517Z 1515/1612 30006KT P6SM OVC015
     FM152100 17006KT P6SM BKN020
     FM161100 17007KT 5SM -SHRA BR OVC018=



000
FTUS41 KCTP 151517 AAA
TAFMDT
TAF AMD
KMDT 151517Z 1515/1612 35007KT P6SM BKN022
     FM152300 VRB05KT P6SM BKN030=



000
FTUS41 KCTP 151517 AAB
TAFJST
TAF AMD
KJST 151517Z 1515/1612 28007KT 1/4SM FG VV002
     FM151730 29008KT 2SM BR OVC004
     FM152000 17006KT 5SM BR OVC008
     FM161000 18007KT 5SM -SHRA BR BKN008 OVC030=



000
FTUS41 KCTP 151517 AAA
TAFMDT
TAF AMD
KMDT 151517Z 1515/1612 35007KT P6SM BKN022
     FM152300 VRB05KT P6SM BKN030=



000
FTUS41 KCTP 151517 AAA
TAFUNV
TAF AMD
KUNV 151517Z 1515/1612 32003KT P6SM OVC015
     FM152100 17006KT P6SM OVC020
     FM161100 17007KT 5SM -SHRA BR OVC018=



000
FTUS41 KCTP 151517 AAB
TAFJST
TAF AMD
KJST 151517Z 1515/1612 28007KT 1/4SM FG VV002
     FM151730 29008KT 2SM BR OVC004
     FM152000 17006KT 5SM BR OVC008
     FM161000 18007KT 5SM -SHRA BR BKN008 OVC030=



000
FTUS41 KCTP 151517 AAA
TAFIPT
TAF AMD
KIPT 151517Z 1515/1612 30007KT P6SM OVC015
     FM151800 29007KT P6SM OVC020
     FM152300 VRB05KT P6SM BKN025=



000
FTUS41 KCTP 151401 AAA
TAFJST
TAF AMD
KJST 151401Z 1514/1612 28007KT 1/4SM FG VV001
     FM151600 29008KT 2SM BR OVC004
     FM151900 17006KT 5SM BR OVC008
     FM161000 18007KT 5SM -SHRA BR BKN008 OVC030=



000
FTUS41 KCTP 151401 AAA
TAFJST
TAF AMD
KJST 151401Z 1514/1612 28007KT 1/4SM FG VV001
     FM151600 29008KT 2SM BR OVC004
     FM151900 17006KT 5SM BR OVC008
     FM161000 18007KT 5SM -SHRA BR BKN008 OVC030=



000
FTUS41 KCTP 151400 AAA
TAFBFD
TAF AMD
KBFD 151400Z 1514/1612 31008KT 1/2SM FG OVC002
     FM151700 16006KT 5SM BR OVC006
     FM160900 17007KT 5SM -SHRA BR BKN006 OVC030=



000
FTUS41 KCTP 151400 AAA
TAFBFD
TAF AMD
KBFD 151400Z 1514/1612 31008KT 1/2SM FG OVC002
     FM151700 16006KT 5SM BR OVC006
     FM160900 17007KT 5SM -SHRA BR BKN006 OVC030=



    US Dept of Commerce
    National Oceanic and Atmospheric Administration
    National Weather Service
    1325 East West Highway
    Silver Spring, MD 20910
    Page Author: NWS Internet Services Team
Disclaimer
Information Quality
Credits
Glossary
Privacy Policy
Freedom of Information Act (FOIA)
About Us
Career Opportunities